<?xml version='1.0' encoding='UTF-8'?><gpx version="1.1" creator="JPX - https://github.com/jenetics/jpx" xmlns="http://www.topografix.com/GPX/1/1"><trk><trkseg><trkpt lat="-25.855311517988717" lon="113.6092483931623"><ele>26.5</ele><time>2026-04-16T01:54:08Z</time></trkpt><trkpt lat="-25.85516211927832" lon="113.6094987153017"><ele>27.0</ele><time>2026-04-16T01:54:09Z</time></trkpt><trkpt lat="-25.85501163429325" lon="113.60974965916353"><ele>27.0</ele><time>2026-04-16T01:54:10Z</time></trkpt><trkpt lat="-25.854862347199877" lon="113.61000153721889"><ele>27.0</ele><time>2026-04-16T01:54:11Z</time></trkpt><trkpt lat="-25.85471180784006" lon="113.61025874230216"><ele>27.0</ele><time>2026-04-16T01:54:12Z</time></trkpt><trkpt lat="-25.85455711448401" lon="113.6105229117898"><ele>27.0</ele><time>2026-04-16T01:54:13Z</time></trkpt><trkpt lat="-25.854400013528245" lon="113.61079326930842"><ele>27.0</ele><time>2026-04-16T01:54:14Z</time></trkpt><trkpt lat="-25.854239116854473" lon="113.61106750180862"><ele>27.0</ele><time>2026-04-16T01:54:15Z</time></trkpt><trkpt lat="-25.854081135848975" lon="113.61133640661768"><ele>27.0</ele><time>2026-04-16T01:54:16Z</time></trkpt><trkpt lat="-25.85392153999271" lon="113.61160561886234"><ele>27.0</ele><time>2026-04-16T01:54:17Z</time></trkpt><trkpt lat="-25.853762364358186" lon="113.61187239587726"><ele>26.5</ele><time>2026-04-16T01:54:18Z</time></trkpt><trkpt lat="-25.853601905220284" lon="113.61214116019954"><ele>26.0</ele><time>2026-04-16T01:54:19Z</time></trkpt><trkpt lat="-25.85344080410418" lon="113.61240936030578"><ele>25.5</ele><time>2026-04-16T01:54:20Z</time></trkpt><trkpt lat="-25.853277303390023" lon="113.61267592581957"><ele>25.0</ele><time>2026-04-16T01:54:21Z</time></trkpt><trkpt lat="-25.85311194233703" lon="113.61294064757081"><ele>25.0</ele><time>2026-04-16T01:54:22Z</time></trkpt><trkpt lat="-25.852943991922636" lon="113.61320437364694"><ele>25.0</ele><time>2026-04-16T01:54:23Z</time></trkpt><trkpt lat="-25.85277302785621" lon="113.61346485865276"><ele>25.5</ele><time>2026-04-16T01:54:24Z</time></trkpt><trkpt lat="-25.852595883344453" lon="113.6137230141817"><ele>26.0</ele><time>2026-04-16T01:54:25Z</time></trkpt><trkpt lat="-25.852414007380954" lon="113.61397875609379"><ele>26.0</ele><time>2026-04-16T01:54:26Z</time></trkpt><trkpt lat="-25.852229454051933" lon="113.61423026538232"><ele>26.0</ele><time>2026-04-16T01:54:27Z</time></trkpt><trkpt lat="-25.852042141657243" lon="113.61447939251113"><ele>25.5</ele><time>2026-04-16T01:54:28Z</time></trkpt><trkpt lat="-25.85185513126057" lon="113.61472548565227"><ele>25.0</ele><time>2026-04-16T01:54:29Z</time></trkpt><trkpt lat="-25.85166475277023" lon="113.61496627802423"><ele>26.0</ele><time>2026-04-16T01:54:30Z</time></trkpt><trkpt lat="-25.851472661711103" lon="113.61520410277849"><ele>27.0</ele><time>2026-04-16T01:54:31Z</time></trkpt><trkpt lat="-25.851276209171775" lon="113.6154350060442"><ele>27.0</ele><time>2026-04-16T01:54:32Z</time></trkpt><trkpt lat="-25.851074920764933" lon="113.61566287466141"><ele>27.0</ele><time>2026-04-16T01:54:33Z</time></trkpt><trkpt lat="-25.850872357611244" lon="113.61588919200483"><ele>27.5</ele><time>2026-04-16T01:54:34Z</time></trkpt><trkpt lat="-25.850666581520123" lon="113.61611601570338"><ele>28.0</ele><time>2026-04-16T01:54:35Z</time></trkpt><trkpt lat="-25.850456014295254" lon="113.61634121497084"><ele>28.0</ele><time>2026-04-16T01:54:36Z</time></trkpt><trkpt lat="-25.850243366576567" lon="113.61656098598823"><ele>28.0</ele><time>2026-04-16T01:54:37Z</time></trkpt><trkpt lat="-25.850026880578085" lon="113.61677627391406"><ele>26.0</ele><time>2026-04-16T01:54:38Z</time></trkpt><trkpt lat="-25.849805422511412" lon="113.61698976320726"><ele>24.0</ele><time>2026-04-16T01:54:39Z</time></trkpt><trkpt lat="-25.849575298294" lon="113.61720147853674"><ele>24.0</ele><time>2026-04-16T01:54:40Z</time></trkpt><trkpt lat="-25.84934379199021" lon="113.6174068047591"><ele>24.0</ele><time>2026-04-16T01:54:41.001Z</time></trkpt><trkpt lat="-25.849111915063297" lon="113.61760821525216"><ele>24.0</ele><time>2026-04-16T01:54:42.001Z</time></trkpt><trkpt lat="-25.848879552328007" lon="113.617806736645"><ele>24.0</ele><time>2026-04-16T01:54:43.001Z</time></trkpt><trkpt lat="-25.848645988877635" lon="113.61800175235517"><ele>25.5</ele><time>2026-04-16T01:54:44.001Z</time></trkpt><trkpt lat="-25.848412348234888" lon="113.61818978696711"><ele>27.0</ele><time>2026-04-16T01:54:45.001Z</time></trkpt><trkpt lat="-25.848176687154464" lon="113.61837431720329"><ele>27.0</ele><time>2026-04-16T01:54:46.001Z</time></trkpt><trkpt lat="-25.847937888774815" lon="113.6185566339663"><ele>27.0</ele><time>2026-04-16T01:54:47.001Z</time></trkpt><trkpt lat="-25.847694229977677" lon="113.61873576916452"><ele>28.0</ele><time>2026-04-16T01:54:48.001Z</time></trkpt><trkpt lat="-25.847446193678916" lon="113.61890931860404"><ele>29.0</ele><time>2026-04-16T01:54:49.001Z</time></trkpt><trkpt lat="-25.84719781643961" lon="113.6190784882561"><ele>29.0</ele><time>2026-04-16T01:54:50.001Z</time></trkpt><trkpt lat="-25.84694365830915" lon="113.61924670248698"><ele>29.0</ele><time>2026-04-16T01:54:51.001Z</time></trkpt><trkpt lat="-25.846687528645532" lon="113.6194132671297"><ele>28.0</ele><time>2026-04-16T01:54:52.001Z</time></trkpt><trkpt lat="-25.846429820640815" lon="113.61957544557443"><ele>27.0</ele><time>2026-04-16T01:54:53.001Z</time></trkpt><trkpt lat="-25.846169351143157" lon="113.61973229057126"><ele>28.0</ele><time>2026-04-16T01:54:54.001Z</time></trkpt><trkpt lat="-25.845904645354803" lon="113.61988131498907"><ele>29.0</ele><time>2026-04-16T01:54:55.001Z</time></trkpt><trkpt lat="-25.84563631407396" lon="113.6200290849705"><ele>29.0</ele><time>2026-04-16T01:54:56.001Z</time></trkpt><trkpt lat="-25.845365141411783" lon="113.6201735302306"><ele>29.0</ele><time>2026-04-16T01:54:57.001Z</time></trkpt><trkpt lat="-25.845094077563836" lon="113.62031240869005"><ele>29.0</ele><time>2026-04-16T01:54:58.001Z</time></trkpt><trkpt lat="-25.844820793682974" lon="113.62044820550801"><ele>29.0</ele><time>2026-04-16T01:54:59.001Z</time></trkpt><trkpt lat="-25.84454738490396" lon="113.62057978342224"><ele>29.5</ele><time>2026-04-16T01:55:00.001Z</time></trkpt><trkpt lat="-25.844273199291504" lon="113.62070581939726"><ele>30.0</ele><time>2026-04-16T01:55:01.001Z</time></trkpt><trkpt lat="-25.84399822737433" lon="113.6208266126035"><ele>30.0</ele><time>2026-04-16T01:55:02.001Z</time></trkpt><trkpt lat="-25.843724039324538" lon="113.6209389234174"><ele>30.0</ele><time>2026-04-16T01:55:03.001Z</time></trkpt><trkpt lat="-25.843448671683753" lon="113.62104562530463"><ele>31.0</ele><time>2026-04-16T01:55:04.001Z</time></trkpt><trkpt lat="-25.8431720119614" lon="113.62115001090531"><ele>32.0</ele><time>2026-04-16T01:55:05.001Z</time></trkpt><trkpt lat="-25.842894366531297" lon="113.62125310275434"><ele>33.0</ele><time>2026-04-16T01:55:06.001Z</time></trkpt><trkpt lat="-25.8426132785202" lon="113.62135568390595"><ele>34.0</ele><time>2026-04-16T01:55:07.001Z</time></trkpt><trkpt lat="-25.842335159689384" lon="113.62145762499368"><ele>34.0</ele><time>2026-04-16T01:55:08.001Z</time></trkpt><trkpt lat="-25.842058016436294" lon="113.62156093658464"><ele>34.0</ele><time>2026-04-16T01:55:09.001Z</time></trkpt><trkpt lat="-25.841779446648495" lon="113.62166606640344"><ele>34.0</ele><time>2026-04-16T01:55:10.001Z</time></trkpt><trkpt lat="-25.84150158684544" lon="113.62177114774597"><ele>34.0</ele><time>2026-04-16T01:55:11.001Z</time></trkpt><trkpt lat="-25.84122073247468" lon="113.62187674511972"><ele>34.0</ele><time>2026-04-16T01:55:12.001Z</time></trkpt><trkpt lat="-25.840942577267867" lon="113.62198342191941"><ele>34.0</ele><time>2026-04-16T01:55:13.001Z</time></trkpt><trkpt lat="-25.840663181103494" lon="113.62208887453802"><ele>34.0</ele><time>2026-04-16T01:55:14.001Z</time></trkpt><trkpt lat="-25.84038246654301" lon="113.62219226740164"><ele>34.0</ele><time>2026-04-16T01:55:15.001Z</time></trkpt><trkpt lat="-25.840102478454632" lon="113.62229384481688"><ele>34.5</ele><time>2026-04-16T01:55:16.001Z</time></trkpt><trkpt lat="-25.839820149970027" lon="113.6223958739501"><ele>35.0</ele><time>2026-04-16T01:55:17.001Z</time></trkpt><trkpt lat="-25.83953977792957" lon="113.62249847004612"><ele>35.0</ele><time>2026-04-16T01:55:18.001Z</time></trkpt><trkpt lat="-25.83926024233152" lon="113.62260285228254"><ele>35.0</ele><time>2026-04-16T01:55:19.001Z</time></trkpt><trkpt lat="-25.838983261638056" lon="113.6227077033058"><ele>35.0</ele><time>2026-04-16T01:55:20.001Z</time></trkpt><trkpt lat="-25.838709290206744" lon="113.62281159399619"><ele>35.0</ele><time>2026-04-16T01:55:21.001Z</time></trkpt><trkpt lat="-25.838434568800768" lon="113.62291430734803"><ele>35.0</ele><time>2026-04-16T01:55:22.001Z</time></trkpt><trkpt lat="-25.838161851105195" lon="113.62301558357687"><ele>35.0</ele><time>2026-04-16T01:55:23.001Z</time></trkpt><trkpt lat="-25.837889029212327" lon="113.62311617566861"><ele>34.0</ele><time>2026-04-16T01:55:24.001Z</time></trkpt><trkpt lat="-25.837618040760514" lon="113.62321689260861"><ele>33.0</ele><time>2026-04-16T01:55:25.001Z</time></trkpt><trkpt lat="-25.837345370244638" lon="113.62331760973537"><ele>33.0</ele><time>2026-04-16T01:55:26.001Z</time></trkpt><trkpt lat="-25.837074044888308" lon="113.62341820065258"><ele>33.0</ele><time>2026-04-16T01:55:27.001Z</time></trkpt><trkpt lat="-25.836803410603007" lon="113.6235189888676"><ele>32.0</ele><time>2026-04-16T01:55:28.001Z</time></trkpt><trkpt lat="-25.836534562231833" lon="113.62362007963085"><ele>31.0</ele><time>2026-04-16T01:55:29.001Z</time></trkpt><trkpt lat="-25.836264351645845" lon="113.62372206990985"><ele>31.0</ele><time>2026-04-16T01:55:30.001Z</time></trkpt><trkpt lat="-25.8359923345272" lon="113.62382428621027"><ele>31.0</ele><time>2026-04-16T01:55:31.001Z</time></trkpt><trkpt lat="-25.83571899884923" lon="113.62392695648307"><ele>28.5</ele><time>2026-04-16T01:55:32.001Z</time></trkpt><trkpt lat="-25.835444076716602" lon="113.62402856010355"><ele>26.0</ele><time>2026-04-16T01:55:33.001Z</time></trkpt><trkpt lat="-25.835167929996814" lon="113.62413066520114"><ele>23.0</ele><time>2026-04-16T01:55:34.001Z</time></trkpt><trkpt lat="-25.83489354107044" lon="113.6242323287374"><ele>20.0</ele><time>2026-04-16T01:55:35.001Z</time></trkpt><trkpt lat="-25.83462099948196" lon="113.62433307850347"><ele>20.0</ele><time>2026-04-16T01:55:36.001Z</time></trkpt><trkpt lat="-25.83435684832894" lon="113.62443042467227"><ele>20.0</ele><time>2026-04-16T01:55:37.001Z</time></trkpt><trkpt lat="-25.834100435561602" lon="113.62452526573058"><ele>18.5</ele><time>2026-04-16T01:55:38.001Z</time></trkpt><trkpt lat="-25.833846067643833" lon="113.62462211244217"><ele>17.0</ele><time>2026-04-16T01:55:39.001Z</time></trkpt><trkpt lat="-25.83360300274738" lon="113.62471653363393"><ele>15.5</ele><time>2026-04-16T01:55:40.001Z</time></trkpt><trkpt lat="-25.8333701612541" lon="113.62481399287593"><ele>14.0</ele><time>2026-04-16T01:55:41.001Z</time></trkpt><trkpt lat="-25.833145659856214" lon="113.62490156140798"><ele>14.0</ele><time>2026-04-16T01:55:42.001Z</time></trkpt><trkpt lat="-25.832932420676773" lon="113.6249799272714"><ele>14.0</ele><time>2026-04-16T01:55:43.001Z</time></trkpt><trkpt lat="-25.832734665448537" lon="113.62505046183517"><ele>14.0</ele><time>2026-04-16T01:55:44.001Z</time></trkpt><trkpt lat="-25.83256234381374" lon="113.62510823637031"><ele>14.0</ele><time>2026-04-16T01:55:45.001Z</time></trkpt><trkpt lat="-25.83241597343427" lon="113.62515950492785"><ele>14.0</ele><time>2026-04-16T01:55:46.001Z</time></trkpt><trkpt lat="-25.832294755118316" lon="113.62520312736994"><ele>14.0</ele><time>2026-04-16T01:55:47.001Z</time></trkpt><trkpt lat="-25.832198945605555" lon="113.62523253506117"><ele>14.0</ele><time>2026-04-16T01:55:48.001Z</time></trkpt><trkpt lat="-25.832132498924373" lon="113.62525439422774"><ele>14.0</ele><time>2026-04-16T01:55:49.001Z</time></trkpt><trkpt lat="-25.832055103576348" lon="113.62528881502051"><ele>13.999999999999998</ele><time>2026-04-16T01:55:52.001Z</time></trkpt><trkpt lat="-25.83198397337929" lon="113.62532937582633"><ele>13.999999999999998</ele><time>2026-04-16T01:55:54.001Z</time></trkpt><trkpt lat="-25.8318489351086" lon="113.62536241949066"><ele>14.0</ele><time>2026-04-16T01:55:56.001Z</time></trkpt><trkpt lat="-25.83176353681125" lon="113.62540235742283"><ele>14.0</ele><time>2026-04-16T01:55:57.001Z</time></trkpt><trkpt lat="-25.83166879239607" lon="113.62544446090139"><ele>12.0</ele><time>2026-04-16T01:55:58.001Z</time></trkpt><trkpt lat="-25.831558961119153" lon="113.62548240009895"><ele>10.0</ele><time>2026-04-16T01:55:59.001Z</time></trkpt><trkpt lat="-25.831437089460593" lon="113.62552232997349"><ele>8.0</ele><time>2026-04-16T01:56:00.001Z</time></trkpt><trkpt lat="-25.83130681497412" lon="113.62556724505417"><ele>6.0</ele><time>2026-04-16T01:56:01.001Z</time></trkpt><trkpt lat="-25.831178233600365" lon="113.62561508773872"><ele>6.0</ele><time>2026-04-16T01:56:02.001Z</time></trkpt><trkpt lat="-25.83104078492832" lon="113.62566817285432"><ele>6.0</ele><time>2026-04-16T01:56:03.001Z</time></trkpt><trkpt lat="-25.83088934595529" lon="113.62572611611148"><ele>6.0</ele><time>2026-04-16T01:56:04.001Z</time></trkpt><trkpt lat="-25.83072617735847" lon="113.6257859191743"><ele>7.666666666666666</ele><time>2026-04-16T01:56:05.001Z</time></trkpt><trkpt lat="-25.830552995857726" lon="113.62585149230422"><ele>9.333333333333332</ele><time>2026-04-16T01:56:06.001Z</time></trkpt><trkpt lat="-25.83037428257025" lon="113.62592320109248"><ele>11.0</ele><time>2026-04-16T01:56:07.001Z</time></trkpt><trkpt lat="-25.830198622364712" lon="113.62599461490058"><ele>10.333333333333332</ele><time>2026-04-16T01:56:08.001Z</time></trkpt><trkpt lat="-25.830013751342232" lon="113.62606665562399"><ele>9.666666666666666</ele><time>2026-04-16T01:56:09.001Z</time></trkpt><trkpt lat="-25.829818671095346" lon="113.62613734323688"><ele>9.0</ele><time>2026-04-16T01:56:10.001Z</time></trkpt><trkpt lat="-25.829616160382752" lon="113.62621034766488"><ele>9.0</ele><time>2026-04-16T01:56:11.001Z</time></trkpt><trkpt lat="-25.8294083143698" lon="113.6262857681306"><ele>9.0</ele><time>2026-04-16T01:56:12.001Z</time></trkpt><trkpt lat="-25.829191989949816" lon="113.6263658044989"><ele>9.0</ele><time>2026-04-16T01:56:13.001Z</time></trkpt><trkpt lat="-25.828970263846642" lon="113.62645243247525"><ele>11.5</ele><time>2026-04-16T01:56:14.001Z</time></trkpt><trkpt lat="-25.828754245133627" lon="113.62654485705559"><ele>14.0</ele><time>2026-04-16T01:56:15.001Z</time></trkpt><trkpt lat="-25.82853394976529" lon="113.62664597731538"><ele>17.5</ele><time>2026-04-16T01:56:16.001Z</time></trkpt><trkpt lat="-25.82830718340259" lon="113.62675704263425"><ele>21.0</ele><time>2026-04-16T01:56:17.001Z</time></trkpt><trkpt lat="-25.828077423874095" lon="113.62687701355217"><ele>21.0</ele><time>2026-04-16T01:56:18.001Z</time></trkpt><trkpt lat="-25.827847248151002" lon="113.62700624597271"><ele>21.0</ele><time>2026-04-16T01:56:19.001Z</time></trkpt><trkpt lat="-25.82761766050988" lon="113.62714185065197"><ele>21.0</ele><time>2026-04-16T01:56:20.001Z</time></trkpt><trkpt lat="-25.82740075403114" lon="113.62727275803368"><ele>21.0</ele><time>2026-04-16T01:56:21.001Z</time></trkpt><trkpt lat="-25.82718449839814" lon="113.62740802113049"><ele>21.0</ele><time>2026-04-16T01:56:22.001Z</time></trkpt><trkpt lat="-25.826969510446048" lon="113.62755028910334"><ele>21.0</ele><time>2026-04-16T01:56:23.001Z</time></trkpt><trkpt lat="-25.826754995828512" lon="113.62769934527644"><ele>23.0</ele><time>2026-04-16T01:56:24.001Z</time></trkpt><trkpt lat="-25.826543018894817" lon="113.62785381504443"><ele>25.0</ele><time>2026-04-16T01:56:25.001Z</time></trkpt><trkpt lat="-25.826332883415446" lon="113.62801431759263"><ele>25.0</ele><time>2026-04-16T01:56:26.001Z</time></trkpt><trkpt lat="-25.826127703332922" lon="113.62818368454333"><ele>25.0</ele><time>2026-04-16T01:56:27.001Z</time></trkpt><trkpt lat="-25.825920319349674" lon="113.62836010948186"><ele>26.0</ele><time>2026-04-16T01:56:28.001Z</time></trkpt><trkpt lat="-25.825711406272617" lon="113.62854289710772"><ele>27.0</ele><time>2026-04-16T01:56:29.001Z</time></trkpt><trkpt lat="-25.82550662275549" lon="113.6287309270788"><ele>27.0</ele><time>2026-04-16T01:56:30.001Z</time></trkpt><trkpt lat="-25.82530292240384" lon="113.62892580845735"><ele>27.0</ele><time>2026-04-16T01:56:31.001Z</time></trkpt><trkpt lat="-25.82510807358912" lon="113.6291266405478"><ele>27.0</ele><time>2026-04-16T01:56:32.001Z</time></trkpt><trkpt lat="-25.824913119477127" lon="113.62933701825787"><ele>27.0</ele><time>2026-04-16T01:56:33.001Z</time></trkpt><trkpt lat="-25.824721099219097" lon="113.62955220358833"><ele>27.0</ele><time>2026-04-16T01:56:34.001Z</time></trkpt><trkpt lat="-25.824535805510845" lon="113.62976973617054"><ele>27.0</ele><time>2026-04-16T01:56:35.001Z</time></trkpt><trkpt lat="-25.82435444557282" lon="113.62999477184597"><ele>27.5</ele><time>2026-04-16T01:56:36.001Z</time></trkpt><trkpt lat="-25.824180477777595" lon="113.63022414878563"><ele>28.0</ele><time>2026-04-16T01:56:37.001Z</time></trkpt><trkpt lat="-25.82400685990111" lon="113.63046040999038"><ele>28.0</ele><time>2026-04-16T01:56:38.001Z</time></trkpt><trkpt lat="-25.82383524883446" lon="113.63069982304478"><ele>28.0</ele><time>2026-04-16T01:56:39.001Z</time></trkpt><trkpt lat="-25.823667688355645" lon="113.63094341863055"><ele>27.5</ele><time>2026-04-16T01:56:40.001Z</time></trkpt><trkpt lat="-25.823507555837875" lon="113.63119103368885"><ele>27.0</ele><time>2026-04-16T01:56:41.001Z</time></trkpt><trkpt lat="-25.823352203388808" lon="113.6314440619696"><ele>27.0</ele><time>2026-04-16T01:56:42.001Z</time></trkpt><trkpt lat="-25.82320220707324" lon="113.63170465183526"><ele>27.0</ele><time>2026-04-16T01:56:43.001Z</time></trkpt><trkpt lat="-25.82305945052695" lon="113.63196854084819"><ele>26.5</ele><time>2026-04-16T01:56:44.001Z</time></trkpt><trkpt lat="-25.822920525344536" lon="113.63223645085945"><ele>26.0</ele><time>2026-04-16T01:56:45.001Z</time></trkpt><trkpt lat="-25.82278907846431" lon="113.63250261022137"><ele>26.0</ele><time>2026-04-16T01:56:46.001Z</time></trkpt><trkpt lat="-25.822660956464485" lon="113.63277000333795"><ele>26.0</ele><time>2026-04-16T01:56:47.001Z</time></trkpt><trkpt lat="-25.822536602192518" lon="113.63304273276442"><ele>27.0</ele><time>2026-04-16T01:56:48.001Z</time></trkpt><trkpt lat="-25.8224155111527" lon="113.6333160119352"><ele>28.0</ele><time>2026-04-16T01:56:49.001Z</time></trkpt><trkpt lat="-25.82229169737094" lon="113.63359109471969"><ele>27.0</ele><time>2026-04-16T01:56:50.001Z</time></trkpt><trkpt lat="-25.822169086534455" lon="113.63386519043233"><ele>26.0</ele><time>2026-04-16T01:56:51.001Z</time></trkpt><trkpt lat="-25.82204179232056" lon="113.63413693865047"><ele>26.0</ele><time>2026-04-16T01:56:52.001Z</time></trkpt><trkpt lat="-25.82191233214786" lon="113.63440688297949"><ele>26.0</ele><time>2026-04-16T01:56:53.001Z</time></trkpt><trkpt lat="-25.82178212499835" lon="113.63467637689628"><ele>27.0</ele><time>2026-04-16T01:56:54.001Z</time></trkpt><trkpt lat="-25.821651973637334" lon="113.6349457202938"><ele>28.0</ele><time>2026-04-16T01:56:55.001Z</time></trkpt><trkpt lat="-25.821526557434996" lon="113.63521448378692"><ele>26.5</ele><time>2026-04-16T01:56:56.001Z</time></trkpt><trkpt lat="-25.821403208176733" lon="113.63548366869713"><ele>25.0</ele><time>2026-04-16T01:56:57.001Z</time></trkpt><trkpt lat="-25.821281148154714" lon="113.63575196030092"><ele>25.0</ele><time>2026-04-16T01:56:58.001Z</time></trkpt><trkpt lat="-25.821160144020272" lon="113.63601818451174"><ele>25.0</ele><time>2026-04-16T01:56:59.001Z</time></trkpt><trkpt lat="-25.821038801915957" lon="113.63628398784546"><ele>24.5</ele><time>2026-04-16T01:57:00.001Z</time></trkpt><trkpt lat="-25.82091346318664" lon="113.63655134615213"><ele>24.0</ele><time>2026-04-16T01:57:01.001Z</time></trkpt><trkpt lat="-25.82078754525307" lon="113.63681928955306"><ele>21.5</ele><time>2026-04-16T01:57:02.001Z</time></trkpt><trkpt lat="-25.82066130641041" lon="113.63708699789908"><ele>19.0</ele><time>2026-04-16T01:57:03.001Z</time></trkpt><trkpt lat="-25.82053600617502" lon="113.63735488672948"><ele>19.0</ele><time>2026-04-16T01:57:04.001Z</time></trkpt><trkpt lat="-25.820411036577266" lon="113.63762345690617"><ele>19.0</ele><time>2026-04-16T01:57:05.001Z</time></trkpt><trkpt lat="-25.82028653626777" lon="113.63789237681019"><ele>19.0</ele><time>2026-04-16T01:57:06.001Z</time></trkpt><trkpt lat="-25.820160053167676" lon="113.6381622318294"><ele>19.0</ele><time>2026-04-16T01:57:07.001Z</time></trkpt><trkpt lat="-25.82003261001497" lon="113.63843090361405"><ele>16.0</ele><time>2026-04-16T01:57:08.001Z</time></trkpt><trkpt lat="-25.81990431987166" lon="113.6387036805216"><ele>13.0</ele><time>2026-04-16T01:57:09.001Z</time></trkpt><trkpt lat="-25.819776785224796" lon="113.63897587453928"><ele>13.0</ele><time>2026-04-16T01:57:10.001Z</time></trkpt><trkpt lat="-25.819649066913076" lon="113.63924941410389"><ele>13.0</ele><time>2026-04-16T01:57:11.001Z</time></trkpt><trkpt lat="-25.819520500976168" lon="113.6395236948906"><ele>13.5</ele><time>2026-04-16T01:57:12.001Z</time></trkpt><trkpt lat="-25.819393165472817" lon="113.63980049189384"><ele>14.0</ele><time>2026-04-16T01:57:13.001Z</time></trkpt><trkpt lat="-25.81926880783963" lon="113.6400776258951"><ele>11.0</ele><time>2026-04-16T01:57:14.001Z</time></trkpt><trkpt lat="-25.81914110772832" lon="113.64035552443413"><ele>8.0</ele><time>2026-04-16T01:57:15.001Z</time></trkpt><trkpt lat="-25.819008658236402" lon="113.64063201877667"><ele>8.0</ele><time>2026-04-16T01:57:16.001Z</time></trkpt><trkpt lat="-25.81887502004909" lon="113.64090671398449"><ele>8.0</ele><time>2026-04-16T01:57:17.001Z</time></trkpt><trkpt lat="-25.818741013567116" lon="113.64118082295181"><ele>7.5</ele><time>2026-04-16T01:57:18.001Z</time></trkpt><trkpt lat="-25.81861057557972" lon="113.64145484642437"><ele>7.0</ele><time>2026-04-16T01:57:19.001Z</time></trkpt><trkpt lat="-25.818481768547862" lon="113.64172830834451"><ele>8.0</ele><time>2026-04-16T01:57:20.001Z</time></trkpt><trkpt lat="-25.81835431665768" lon="113.6420043796659"><ele>9.0</ele><time>2026-04-16T01:57:21.001Z</time></trkpt><trkpt lat="-25.818229655745515" lon="113.6422791228999"><ele>9.0</ele><time>2026-04-16T01:57:22.001Z</time></trkpt><trkpt lat="-25.81810324581574" lon="113.64255396255601"><ele>9.0</ele><time>2026-04-16T01:57:23.001Z</time></trkpt><trkpt lat="-25.817976728764037" lon="113.64282631802288"><ele>8.0</ele><time>2026-04-16T01:57:24.001Z</time></trkpt><trkpt lat="-25.81784778600571" lon="113.64310045429959"><ele>7.0</ele><time>2026-04-16T01:57:25.001Z</time></trkpt><trkpt lat="-25.817721311990443" lon="113.6433698066828"><ele>9.0</ele><time>2026-04-16T01:57:26.001Z</time></trkpt><trkpt lat="-25.817592851472952" lon="113.64364357952259"><ele>11.0</ele><time>2026-04-16T01:57:27.001Z</time></trkpt><trkpt lat="-25.817463526971196" lon="113.64392345416393"><ele>11.0</ele><time>2026-04-16T01:57:28.001Z</time></trkpt><trkpt lat="-25.817334799021932" lon="113.6442043299562"><ele>11.0</ele><time>2026-04-16T01:57:29.001Z</time></trkpt><trkpt lat="-25.817205972499856" lon="113.64448309792854"><ele>10.0</ele><time>2026-04-16T01:57:30.001Z</time></trkpt><trkpt lat="-25.817075535242328" lon="113.64476184241536"><ele>9.0</ele><time>2026-04-16T01:57:31.001Z</time></trkpt><trkpt lat="-25.81694648416493" lon="113.64504105232596"><ele>10.5</ele><time>2026-04-16T01:57:32.001Z</time></trkpt><trkpt lat="-25.8168152212854" lon="113.64531826610764"><ele>12.0</ele><time>2026-04-16T01:57:33.001Z</time></trkpt><trkpt lat="-25.816684395947796" lon="113.64559448562261"><ele>12.0</ele><time>2026-04-16T01:57:34.001Z</time></trkpt><trkpt lat="-25.81655670148526" lon="113.64586870139296"><ele>12.0</ele><time>2026-04-16T01:57:35.001Z</time></trkpt><trkpt lat="-25.81643835793547" lon="113.64614077578175"><ele>11.0</ele><time>2026-04-16T01:57:36Z</time></trkpt><trkpt lat="-25.81632642646243" lon="113.64641551097709"><ele>10.0</ele><time>2026-04-16T01:57:37Z</time></trkpt><trkpt lat="-25.816213094349564" lon="113.64669478444753"><ele>10.0</ele><time>2026-04-16T01:57:38Z</time></trkpt><trkpt lat="-25.816100245147744" lon="113.64697751712838"><ele>10.0</ele><time>2026-04-16T01:57:39Z</time></trkpt><trkpt lat="-25.815993201522833" lon="113.64726049324406"><ele>11.0</ele><time>2026-04-16T01:57:40Z</time></trkpt><trkpt lat="-25.815891215989417" lon="113.64754395507397"><ele>12.0</ele><time>2026-04-16T01:57:41Z</time></trkpt><trkpt lat="-25.815793095504027" lon="113.64783107469822"><ele>12.0</ele><time>2026-04-16T01:57:42Z</time></trkpt><trkpt lat="-25.815699282401166" lon="113.64811745164194"><ele>12.0</ele><time>2026-04-16T01:57:43Z</time></trkpt><trkpt lat="-25.815607920966443" lon="113.64840429564316"><ele>10.5</ele><time>2026-04-16T01:57:44Z</time></trkpt><trkpt lat="-25.81551919991633" lon="113.64869258725076"><ele>9.0</ele><time>2026-04-16T01:57:45Z</time></trkpt><trkpt lat="-25.81543509983985" lon="113.64898319733716"><ele>9.0</ele><time>2026-04-16T01:57:46Z</time></trkpt><trkpt lat="-25.815353202928947" lon="113.64927231991082"><ele>9.0</ele><time>2026-04-16T01:57:47Z</time></trkpt><trkpt lat="-25.815273991300185" lon="113.64955643884598"><ele>9.0</ele><time>2026-04-16T01:57:48Z</time></trkpt><trkpt lat="-25.81519390125464" lon="113.64983930894023"><ele>9.0</ele><time>2026-04-16T01:57:49Z</time></trkpt><trkpt lat="-25.815111310445744" lon="113.65011701412283"><ele>10.5</ele><time>2026-04-16T01:57:50Z</time></trkpt><trkpt lat="-25.81502349340951" lon="113.65038875079517"><ele>12.0</ele><time>2026-04-16T01:57:51Z</time></trkpt><trkpt lat="-25.81493539190044" lon="113.65065893406783"><ele>12.0</ele><time>2026-04-16T01:57:52Z</time></trkpt><trkpt lat="-25.814849001054704" lon="113.65092816055694"><ele>12.0</ele><time>2026-04-16T01:57:53Z</time></trkpt><trkpt lat="-25.81476729694407" lon="113.65119397057312"><ele>11.5</ele><time>2026-04-16T01:57:54Z</time></trkpt><trkpt lat="-25.814688735017402" lon="113.65146679618005"><ele>11.0</ele><time>2026-04-16T01:57:55Z</time></trkpt><trkpt lat="-25.814609316654913" lon="113.65174001763917"><ele>9.5</ele><time>2026-04-16T01:57:56Z</time></trkpt><trkpt lat="-25.814531193015043" lon="113.65201319166202"><ele>8.0</ele><time>2026-04-16T01:57:57Z</time></trkpt><trkpt lat="-25.81445139667494" lon="113.65229056275203"><ele>8.0</ele><time>2026-04-16T01:57:58Z</time></trkpt><trkpt lat="-25.814372006730977" lon="113.65256355107357"><ele>8.0</ele><time>2026-04-16T01:57:59Z</time></trkpt><trkpt lat="-25.814289959591147" lon="113.65284003987257"><ele>8.5</ele><time>2026-04-16T01:58:00Z</time></trkpt><trkpt lat="-25.814207213513686" lon="113.65311852721842"><ele>9.0</ele><time>2026-04-16T01:58:01Z</time></trkpt><trkpt lat="-25.814122008394346" lon="113.65339962142053"><ele>8.0</ele><time>2026-04-16T01:58:02Z</time></trkpt><trkpt lat="-25.814034452339943" lon="113.65368354125735"><ele>7.0</ele><time>2026-04-16T01:58:03Z</time></trkpt><trkpt lat="-25.81394789141606" lon="113.65396672840309"><ele>7.0</ele><time>2026-04-16T01:58:04Z</time></trkpt><trkpt lat="-25.81386255971399" lon="113.65425086071556"><ele>7.0</ele><time>2026-04-16T01:58:05Z</time></trkpt><trkpt lat="-25.81377869064807" lon="113.6545398441209"><ele>6.5</ele><time>2026-04-16T01:58:06Z</time></trkpt><trkpt lat="-25.813695877729504" lon="113.65482462188942"><ele>6.0</ele><time>2026-04-16T01:58:07Z</time></trkpt><trkpt lat="-25.81361438471771" lon="113.65510842060218"><ele>5.5</ele><time>2026-04-16T01:58:08Z</time></trkpt><trkpt lat="-25.813537326287562" lon="113.6553876975194"><ele>5.0</ele><time>2026-04-16T01:58:09Z</time></trkpt><trkpt lat="-25.81346016739874" lon="113.65565477013514"><ele>6.5</ele><time>2026-04-16T01:58:10Z</time></trkpt><trkpt lat="-25.813384604654747" lon="113.65590272970621"><ele>8.0</ele><time>2026-04-16T01:58:11Z</time></trkpt><trkpt lat="-25.813309348753858" lon="113.65614257886128"><ele>8.0</ele><time>2026-04-16T01:58:12Z</time></trkpt><trkpt lat="-25.81323497581813" lon="113.65638297628513"><ele>8.0</ele><time>2026-04-16T01:58:13Z</time></trkpt><trkpt lat="-25.81316248099401" lon="113.65662029857349"><ele>8.0</ele><time>2026-04-16T01:58:14Z</time></trkpt><trkpt lat="-25.813095351218678" lon="113.65684308331923"><ele>8.0</ele><time>2026-04-16T01:58:15Z</time></trkpt><trkpt lat="-25.81303698470134" lon="113.65704659531517"><ele>8.0</ele><time>2026-04-16T01:58:16Z</time></trkpt><trkpt lat="-25.81298030592655" lon="113.6572344553214"><ele>8.666666666666666</ele><time>2026-04-16T01:58:17Z</time></trkpt><trkpt lat="-25.81292338707345" lon="113.65740728825911"><ele>9.333333333333334</ele><time>2026-04-16T01:58:18Z</time></trkpt><trkpt lat="-25.812868727133754" lon="113.65756906371632"><ele>10.0</ele><time>2026-04-16T01:58:19Z</time></trkpt><trkpt lat="-25.8128214590094" lon="113.6577083440724"><ele>10.2</ele><time>2026-04-16T01:58:20Z</time></trkpt><trkpt lat="-25.81278083421475" lon="113.6578252145711"><ele>10.4</ele><time>2026-04-16T01:58:21Z</time></trkpt><trkpt lat="-25.812750720939405" lon="113.65791145918149"><ele>10.600000000000001</ele><time>2026-04-16T01:58:22Z</time></trkpt><trkpt lat="-25.812727017474128" lon="113.65798444530613"><ele>10.8</ele><time>2026-04-16T01:58:23Z</time></trkpt><trkpt lat="-25.81270534483468" lon="113.65812837503101"><ele>11.0</ele><time>2026-04-16T01:58:25Z</time></trkpt><trkpt lat="-25.812690658421605" lon="113.65821517214239"><ele>11.0</ele><time>2026-04-16T01:58:26Z</time></trkpt><trkpt lat="-25.812665104864962" lon="113.6583190710337"><ele>11.0</ele><time>2026-04-16T01:58:27Z</time></trkpt><trkpt lat="-25.812626878917087" lon="113.65844099943827"><ele>11.0</ele><time>2026-04-16T01:58:28Z</time></trkpt><trkpt lat="-25.812584723788486" lon="113.65857786030655"><ele>11.0</ele><time>2026-04-16T01:58:29Z</time></trkpt><trkpt lat="-25.812539051406365" lon="113.65872529004912"><ele>12.666666666666666</ele><time>2026-04-16T01:58:30Z</time></trkpt><trkpt lat="-25.81248826115881" lon="113.65888266978855"><ele>14.333333333333332</ele><time>2026-04-16T01:58:31Z</time></trkpt><trkpt lat="-25.812437150199923" lon="113.65905010147551"><ele>16.0</ele><time>2026-04-16T01:58:32Z</time></trkpt><trkpt lat="-25.812385498020568" lon="113.65922757212097"><ele>16.0</ele><time>2026-04-16T01:58:33Z</time></trkpt><trkpt lat="-25.812333067132126" lon="113.65940819522619"><ele>16.0</ele><time>2026-04-16T01:58:34Z</time></trkpt><trkpt lat="-25.81227883961268" lon="113.65959130137469"><ele>16.0</ele><time>2026-04-16T01:58:35Z</time></trkpt><trkpt lat="-25.81223120906482" lon="113.65974657387365"><ele>16.0</ele><time>2026-04-16T01:58:36Z</time></trkpt><trkpt lat="-25.812201561945294" lon="113.65985052908547"><ele>16.0</ele><time>2026-04-16T01:58:37Z</time></trkpt><trkpt lat="-25.812196491028534" lon="113.65994250357753"><ele>16.0</ele><time>2026-04-16T01:58:39Z</time></trkpt><trkpt lat="-25.81231960814131" lon="113.66002348776476"><ele>16.0</ele><time>2026-04-16T01:58:42Z</time></trkpt><trkpt lat="-25.81239002115459" lon="113.66004231591631"><ele>16.0</ele><time>2026-04-16T01:58:43Z</time></trkpt><trkpt lat="-25.812475314633648" lon="113.66006074282167"><ele>16.0</ele><time>2026-04-16T01:58:44Z</time></trkpt><trkpt lat="-25.8125665212927" lon="113.66007741277087"><ele>16.0</ele><time>2026-04-16T01:58:45Z</time></trkpt><trkpt lat="-25.812656014703986" lon="113.66009745197529"><ele>16.0</ele><time>2026-04-16T01:58:46Z</time></trkpt><trkpt lat="-25.812741859150606" lon="113.6601191358262"><ele>16.0</ele><time>2026-04-16T01:58:47Z</time></trkpt><trkpt lat="-25.812815954588135" lon="113.66014318131982"><ele>16.0</ele><time>2026-04-16T01:58:48Z</time></trkpt><trkpt lat="-25.812914606509423" lon="113.66018270144642"><ele>16.0</ele><time>2026-04-16T01:58:50Z</time></trkpt><trkpt lat="-25.812893500134916" lon="113.66029143844754"><ele>16.0</ele><time>2026-04-16T01:58:54Z</time></trkpt><trkpt lat="-25.81278720033265" lon="113.66039324455947"><ele>16.0</ele><time>2026-04-16T01:58:56Z</time></trkpt><trkpt lat="-25.81274025088982" lon="113.66045396374986"><ele>16.0</ele><time>2026-04-16T01:58:57Z</time></trkpt><trkpt lat="-25.812695070109076" lon="113.66051920877182"><ele>16.0</ele><time>2026-04-16T01:58:58Z</time></trkpt><trkpt lat="-25.812642601179803" lon="113.66059038452917"><ele>16.0</ele><time>2026-04-16T01:58:59Z</time></trkpt><trkpt lat="-25.812594757187018" lon="113.66064096155908"><ele>16.0</ele><time>2026-04-16T01:59:00Z</time></trkpt><trkpt lat="-25.812532046716644" lon="113.66074939321693"><ele>16.0</ele><time>2026-04-16T01:59:02Z</time></trkpt><trkpt lat="-25.812471475000283" lon="113.66085040334335"><ele>16.0</ele><time>2026-04-16T01:59:04Z</time></trkpt><trkpt lat="-25.812395224653194" lon="113.66093712795136"><ele>16.0</ele><time>2026-04-16T01:59:06Z</time></trkpt><trkpt lat="-25.812352119363606" lon="113.66104041961513"><ele>15.999999999999998</ele><time>2026-04-16T01:59:08Z</time></trkpt><trkpt lat="-25.81233652983132" lon="113.66111557174908"><ele>16.0</ele><time>2026-04-16T01:59:09Z</time></trkpt><trkpt lat="-25.812317652152284" lon="113.66120656750017"><ele>16.0</ele><time>2026-04-16T01:59:10Z</time></trkpt><trkpt lat="-25.81228929992589" lon="113.66130479257443"><ele>16.0</ele><time>2026-04-16T01:59:11Z</time></trkpt><trkpt lat="-25.81226084548668" lon="113.6614027007905"><ele>15.999999999999998</ele><time>2026-04-16T01:59:12Z</time></trkpt><trkpt lat="-25.81223156975683" lon="113.66150085224325"><ele>16.0</ele><time>2026-04-16T01:59:13Z</time></trkpt><trkpt lat="-25.81220108065958" lon="113.66159607343539"><ele>16.0</ele><time>2026-04-16T01:59:14Z</time></trkpt><trkpt lat="-25.812168635734007" lon="113.66169694981576"><ele>16.0</ele><time>2026-04-16T01:59:15Z</time></trkpt><trkpt lat="-25.812135344259048" lon="113.66179836256912"><ele>16.0</ele><time>2026-04-16T01:59:16Z</time></trkpt><trkpt lat="-25.812105576605802" lon="113.6619049990471"><ele>16.0</ele><time>2026-04-16T01:59:17Z</time></trkpt><trkpt lat="-25.812071402938805" lon="113.6620194852258"><ele>16.0</ele><time>2026-04-16T01:59:18Z</time></trkpt><trkpt lat="-25.812037964513216" lon="113.66213678180587"><ele>16.0</ele><time>2026-04-16T01:59:19Z</time></trkpt><trkpt lat="-25.812008118144632" lon="113.6622435111954"><ele>16.0</ele><time>2026-04-16T01:59:20.001Z</time></trkpt><trkpt lat="-25.811988183479947" lon="113.6623224651369"><ele>16.0</ele><time>2026-04-16T01:59:21.001Z</time></trkpt><trkpt lat="-25.81196698788418" lon="113.66242621295773"><ele>16.0</ele><time>2026-04-16T01:59:23.001Z</time></trkpt><trkpt lat="-25.811918718636093" lon="113.66254390469066"><ele>16.0</ele><time>2026-04-16T01:59:25.001Z</time></trkpt><trkpt lat="-25.81189377279084" lon="113.66261915398812"><ele>16.0</ele><time>2026-04-16T01:59:26.001Z</time></trkpt><trkpt lat="-25.811869165424106" lon="113.66273514436988"><ele>16.0</ele><time>2026-04-16T01:59:28.001Z</time></trkpt><trkpt lat="-25.811834463103093" lon="113.66283424993756"><ele>16.0</ele><time>2026-04-16T01:59:30.001Z</time></trkpt><trkpt lat="-25.81178278313163" lon="113.662944950011"><ele>16.0</ele><time>2026-04-16T01:59:32.001Z</time></trkpt><trkpt lat="-25.811753519920824" lon="113.66309745356476"><ele>14.600000000000001</ele><time>2026-04-16T01:59:34.001Z</time></trkpt><trkpt lat="-25.811736553674578" lon="113.66318882203298"><ele>13.200000000000001</ele><time>2026-04-16T01:59:35.001Z</time></trkpt><trkpt lat="-25.811721680106185" lon="113.66325893470518"><ele>11.8</ele><time>2026-04-16T01:59:36.001Z</time></trkpt><trkpt lat="-25.81170193439409" lon="113.66332926750299"><ele>10.4</ele><time>2026-04-16T01:59:37.001Z</time></trkpt><trkpt lat="-25.811650249706627" lon="113.66344673610833"><ele>9.0</ele><time>2026-04-16T01:59:39.001Z</time></trkpt><trkpt lat="-25.81161356858729" lon="113.66357741950993"><ele>9.8</ele><time>2026-04-16T01:59:41.001Z</time></trkpt><trkpt lat="-25.81159555859917" lon="113.66368843512963"><ele>10.600000000000001</ele><time>2026-04-16T01:59:43.001Z</time></trkpt><trkpt lat="-25.8115518637859" lon="113.66378959011499"><ele>11.4</ele><time>2026-04-16T01:59:45.001Z</time></trkpt><trkpt lat="-25.811533554648793" lon="113.66388331828209"><ele>12.200000000000001</ele><time>2026-04-16T01:59:47.001Z</time></trkpt><trkpt lat="-25.811497011849642" lon="113.66399340380059"><ele>13.0</ele><time>2026-04-16T01:59:49.001Z</time></trkpt><trkpt lat="-25.811464241731983" lon="113.66406348967453"><ele>12.999999999999998</ele><time>2026-04-16T01:59:50.001Z</time></trkpt><trkpt lat="-25.81143829649047" lon="113.6641317091296"><ele>13.0</ele><time>2026-04-16T01:59:51.001Z</time></trkpt><trkpt lat="-25.811416428434786" lon="113.66422167357479"><ele>13.0</ele><time>2026-04-16T01:59:53.001Z</time></trkpt><trkpt lat="-25.811464687421623" lon="113.66417330264859"><ele>13.0</ele><time>2026-04-16T02:00:01.001Z</time></trkpt><trkpt lat="-25.81145175889069" lon="113.66410044227466"><ele>12.999999999999998</ele><time>2026-04-16T02:00:03.001Z</time></trkpt><trkpt lat="-25.81149388173748" lon="113.66398360691923"><ele>13.0</ele><time>2026-04-16T02:00:05.001Z</time></trkpt><trkpt lat="-25.811539428170956" lon="113.66387892758385"><ele>13.0</ele><time>2026-04-16T02:00:07.001Z</time></trkpt><trkpt lat="-25.81155381520409" lon="113.66378227292077"><ele>13.0</ele><time>2026-04-16T02:00:09.001Z</time></trkpt><trkpt lat="-25.811581677060854" lon="113.66369593520082"><ele>13.0</ele><time>2026-04-16T02:00:11.001Z</time></trkpt><trkpt lat="-25.811620301657662" lon="113.66360914033535"><ele>13.0</ele><time>2026-04-16T02:00:13.001Z</time></trkpt><trkpt lat="-25.81163062049512" lon="113.66348455545675"><ele>13.0</ele><time>2026-04-16T02:00:15.001Z</time></trkpt><trkpt lat="-25.81168918085264" lon="113.66334858187115"><ele>12.333333333333332</ele><time>2026-04-16T02:00:17.001Z</time></trkpt><trkpt lat="-25.81172659725736" lon="113.66327269213689"><ele>11.666666666666666</ele><time>2026-04-16T02:00:18.001Z</time></trkpt><trkpt lat="-25.811750094079347" lon="113.66319057180961"><ele>11.0</ele><time>2026-04-16T02:00:19.001Z</time></trkpt><trkpt lat="-25.811768981238608" lon="113.66309825042492"><ele>10.333333333333332</ele><time>2026-04-16T02:00:20.001Z</time></trkpt><trkpt lat="-25.81178312854762" lon="113.66301227772685"><ele>9.666666666666666</ele><time>2026-04-16T02:00:21.001Z</time></trkpt><trkpt lat="-25.811797040503723" lon="113.66293284462287"><ele>9.0</ele><time>2026-04-16T02:00:22.001Z</time></trkpt><trkpt lat="-25.811832417574745" lon="113.66282387490932"><ele>10.4</ele><time>2026-04-16T02:00:24.001Z</time></trkpt><trkpt lat="-25.811889393196765" lon="113.66270541337249"><ele>11.8</ele><time>2026-04-16T02:00:26.001Z</time></trkpt><trkpt lat="-25.811913491489662" lon="113.66258103115867"><ele>13.200000000000001</ele><time>2026-04-16T02:00:28.001Z</time></trkpt><trkpt lat="-25.811938922662808" lon="113.66249842551088"><ele>14.600000000000001</ele><time>2026-04-16T02:00:29.001Z</time></trkpt><trkpt lat="-25.811971883698735" lon="113.66240297246136"><ele>16.0</ele><time>2026-04-16T02:00:30.001Z</time></trkpt><trkpt lat="-25.81199964003839" lon="113.66231675951383"><ele>16.0</ele><time>2026-04-16T02:00:31.001Z</time></trkpt><trkpt lat="-25.812024951191653" lon="113.66220963707258"><ele>16.0</ele><time>2026-04-16T02:00:32.001Z</time></trkpt><trkpt lat="-25.812054760661596" lon="113.6620899508507"><ele>16.0</ele><time>2026-04-16T02:00:33.001Z</time></trkpt><trkpt lat="-25.812080746706727" lon="113.6619883522434"><ele>16.0</ele><time>2026-04-16T02:00:34.001Z</time></trkpt><trkpt lat="-25.81211423490994" lon="113.66188058334262"><ele>16.0</ele><time>2026-04-16T02:00:35.001Z</time></trkpt><trkpt lat="-25.81214853057334" lon="113.66176514444112"><ele>16.25</ele><time>2026-04-16T02:00:36.001Z</time></trkpt><trkpt lat="-25.812185108077077" lon="113.66164749518475"><ele>16.5</ele><time>2026-04-16T02:00:37.001Z</time></trkpt><trkpt lat="-25.812225238055348" lon="113.66151644298743"><ele>16.75</ele><time>2026-04-16T02:00:38.001Z</time></trkpt><trkpt lat="-25.81226578320663" lon="113.6613847810796"><ele>17.0</ele><time>2026-04-16T02:00:39.001Z</time></trkpt><trkpt lat="-25.812306176547477" lon="113.66126128852225"><ele>17.0</ele><time>2026-04-16T02:00:40.001Z</time></trkpt><trkpt lat="-25.812339071374947" lon="113.66113642365406"><ele>17.0</ele><time>2026-04-16T02:00:41.001Z</time></trkpt><trkpt lat="-25.812371881954792" lon="113.66101332554649"><ele>17.0</ele><time>2026-04-16T02:00:42.001Z</time></trkpt><trkpt lat="-25.812401328103746" lon="113.66091806640196"><ele>17.0</ele><time>2026-04-16T02:00:43.001Z</time></trkpt><trkpt lat="-25.812439550929177" lon="113.66083611014312"><ele>17.0</ele><time>2026-04-16T02:00:45.001Z</time></trkpt><trkpt lat="-25.812507927553668" lon="113.66079561064822"><ele>16.8</ele><time>2026-04-16T02:00:47.001Z</time></trkpt><trkpt lat="-25.812564874853134" lon="113.66073451552712"><ele>16.6</ele><time>2026-04-16T02:00:49.001Z</time></trkpt><trkpt lat="-25.81258856128417" lon="113.66062627321257"><ele>16.400000000000002</ele><time>2026-04-16T02:00:51.001Z</time></trkpt><trkpt lat="-25.81267526443212" lon="113.66052095281574"><ele>16.2</ele><time>2026-04-16T02:00:53.001Z</time></trkpt><trkpt lat="-25.812736431945314" lon="113.66045797273404"><ele>16.0</ele><time>2026-04-16T02:00:54.001Z</time></trkpt><trkpt lat="-25.812796791586813" lon="113.66039194654184"><ele>16.333333333333332</ele><time>2026-04-16T02:00:55.001Z</time></trkpt><trkpt lat="-25.81284148453116" lon="113.66033782225496"><ele>16.666666666666664</ele><time>2026-04-16T02:00:56.001Z</time></trkpt><trkpt lat="-25.812909431186387" lon="113.66024430861657"><ele>17.0</ele><time>2026-04-16T02:00:58.001Z</time></trkpt><trkpt lat="-25.8129107079619" lon="113.66014823854593"><ele>17.333333333333332</ele><time>2026-04-16T02:01:01.001Z</time></trkpt><trkpt lat="-25.81285792567509" lon="113.66009646927579"><ele>17.666666666666668</ele><time>2026-04-16T02:01:03.001Z</time></trkpt><trkpt lat="-25.81275637962066" lon="113.66007237069375"><ele>18.0</ele><time>2026-04-16T02:01:05.001Z</time></trkpt><trkpt lat="-25.812672553588406" lon="113.66007449298239"><ele>17.666666666666668</ele><time>2026-04-16T02:01:06.001Z</time></trkpt><trkpt lat="-25.812579120726184" lon="113.66007706524583"><ele>17.333333333333332</ele><time>2026-04-16T02:01:07.001Z</time></trkpt><trkpt lat="-25.81248421612973" lon="113.6600660297046"><ele>17.0</ele><time>2026-04-16T02:01:08.001Z</time></trkpt><trkpt lat="-25.812397751033913" lon="113.66004535798923"><ele>16.666666666666664</ele><time>2026-04-16T02:01:09.001Z</time></trkpt><trkpt lat="-25.812339451982282" lon="113.6600184762778"><ele>16.333333333333332</ele><time>2026-04-16T02:01:10.001Z</time></trkpt><trkpt lat="-25.812268498721366" lon="113.65999889356422"><ele>16.0</ele><time>2026-04-16T02:01:13.001Z</time></trkpt><trkpt lat="-25.81219564718981" lon="113.6600143467743"><ele>16.0</ele><time>2026-04-16T02:01:16.001Z</time></trkpt><trkpt lat="-25.81210784298949" lon="113.66011907368264"><ele>16.0</ele><time>2026-04-16T02:01:18.001Z</time></trkpt><trkpt lat="-25.812080218297368" lon="113.66021764411465"><ele>16.0</ele><time>2026-04-16T02:01:19.001Z</time></trkpt><trkpt lat="-25.81205337176228" lon="113.66034321840758"><ele>16.0</ele><time>2026-04-16T02:01:20.001Z</time></trkpt><trkpt lat="-25.81201576488385" lon="113.66048064449818"><ele>16.0</ele><time>2026-04-16T02:01:21.001Z</time></trkpt><trkpt lat="-25.811964955472483" lon="113.66064327513989"><ele>16.0</ele><time>2026-04-16T02:01:22.001Z</time></trkpt><trkpt lat="-25.81191320817817" lon="113.66081866130466"><ele>16.0</ele><time>2026-04-16T02:01:23.001Z</time></trkpt><trkpt lat="-25.81185966635115" lon="113.6610095036847"><ele>15.333333333333332</ele><time>2026-04-16T02:01:24.001Z</time></trkpt><trkpt lat="-25.811800690790985" lon="113.66121900372382"><ele>14.666666666666668</ele><time>2026-04-16T02:01:25.001Z</time></trkpt><trkpt lat="-25.811737712686586" lon="113.66143123837351"><ele>14.0</ele><time>2026-04-16T02:01:26.001Z</time></trkpt><trkpt lat="-25.811673125746452" lon="113.66164124450476"><ele>14.0</ele><time>2026-04-16T02:01:27.001Z</time></trkpt><trkpt lat="-25.811609113687496" lon="113.66185492414199"><ele>14.0</ele><time>2026-04-16T02:01:28.001Z</time></trkpt><trkpt lat="-25.811543426772086" lon="113.66207362950975"><ele>14.0</ele><time>2026-04-16T02:01:29.001Z</time></trkpt><trkpt lat="-25.811478611415254" lon="113.66230061646519"><ele>12.333333333333334</ele><time>2026-04-16T02:01:30.001Z</time></trkpt><trkpt lat="-25.811413484810995" lon="113.66253005146696"><ele>10.666666666666668</ele><time>2026-04-16T02:01:31.001Z</time></trkpt><trkpt lat="-25.811344743673995" lon="113.66276512685961"><ele>9.0</ele><time>2026-04-16T02:01:32.001Z</time></trkpt><trkpt lat="-25.811273626100814" lon="113.66300369980763"><ele>9.0</ele><time>2026-04-16T02:01:33.001Z</time></trkpt><trkpt lat="-25.811204689322942" lon="113.66323479063178"><ele>9.0</ele><time>2026-04-16T02:01:34.001Z</time></trkpt><trkpt lat="-25.811136330272745" lon="113.66346324037421"><ele>9.0</ele><time>2026-04-16T02:01:35.001Z</time></trkpt><trkpt lat="-25.81106593970077" lon="113.66369284242894"><ele>8.666666666666666</ele><time>2026-04-16T02:01:36.001Z</time></trkpt><trkpt lat="-25.8109969170896" lon="113.6639266478465"><ele>8.333333333333332</ele><time>2026-04-16T02:01:37.001Z</time></trkpt><trkpt lat="-25.810926896950118" lon="113.6641621781541"><ele>8.0</ele><time>2026-04-16T02:01:38.001Z</time></trkpt><trkpt lat="-25.8108572919327" lon="113.66440253300814"><ele>9.0</ele><time>2026-04-16T02:01:39Z</time></trkpt><trkpt lat="-25.810786221130996" lon="113.66464194270412"><ele>10.0</ele><time>2026-04-16T02:01:40Z</time></trkpt><trkpt lat="-25.81071297485937" lon="113.66487944162607"><ele>10.0</ele><time>2026-04-16T02:01:41Z</time></trkpt><trkpt lat="-25.81064065238803" lon="113.66512028395346"><ele>10.0</ele><time>2026-04-16T02:01:42Z</time></trkpt><trkpt lat="-25.810568742503726" lon="113.6653618112925"><ele>9.5</ele><time>2026-04-16T02:01:43Z</time></trkpt><trkpt lat="-25.810497218298906" lon="113.6656036838421"><ele>9.0</ele><time>2026-04-16T02:01:44Z</time></trkpt><trkpt lat="-25.810423882792872" lon="113.66584870040465"><ele>9.0</ele><time>2026-04-16T02:01:45Z</time></trkpt><trkpt lat="-25.810352921807407" lon="113.6660923663902"><ele>9.0</ele><time>2026-04-16T02:01:46Z</time></trkpt><trkpt lat="-25.810282178367938" lon="113.66633428182479"><ele>8.0</ele><time>2026-04-16T02:01:47Z</time></trkpt><trkpt lat="-25.810209520953272" lon="113.66657426714151"><ele>7.0</ele><time>2026-04-16T02:01:48Z</time></trkpt><trkpt lat="-25.81013638988052" lon="113.6668171545387"><ele>7.5</ele><time>2026-04-16T02:01:49Z</time></trkpt><trkpt lat="-25.810066337415833" lon="113.66705954466539"><ele>8.0</ele><time>2026-04-16T02:01:50Z</time></trkpt><trkpt lat="-25.809996855313493" lon="113.6673032854812"><ele>8.0</ele><time>2026-04-16T02:01:51Z</time></trkpt><trkpt lat="-25.809922423261284" lon="113.66755626947345"><ele>8.0</ele><time>2026-04-16T02:01:52Z</time></trkpt><trkpt lat="-25.809845530995585" lon="113.66781636238319"><ele>9.5</ele><time>2026-04-16T02:01:53Z</time></trkpt><trkpt lat="-25.80976394917069" lon="113.66808783146789"><ele>11.0</ele><time>2026-04-16T02:01:54Z</time></trkpt><trkpt lat="-25.80967959350867" lon="113.66836499132252"><ele>14.0</ele><time>2026-04-16T02:01:55Z</time></trkpt><trkpt lat="-25.809597443844233" lon="113.668636006429"><ele>17.0</ele><time>2026-04-16T02:01:56Z</time></trkpt><trkpt lat="-25.80951823344922" lon="113.66890066529271"><ele>17.0</ele><time>2026-04-16T02:01:57Z</time></trkpt><trkpt lat="-25.809437454100284" lon="113.66917127224562"><ele>17.0</ele><time>2026-04-16T02:01:58Z</time></trkpt><trkpt lat="-25.809358070502324" lon="113.669440298147"><ele>16.0</ele><time>2026-04-16T02:01:59Z</time></trkpt><trkpt lat="-25.809284367198213" lon="113.66970650599164"><ele>15.0</ele><time>2026-04-16T02:02:00Z</time></trkpt><trkpt lat="-25.809211506183296" lon="113.66997170833578"><ele>15.0</ele><time>2026-04-16T02:02:01Z</time></trkpt><trkpt lat="-25.809130920021513" lon="113.6702431621178"><ele>15.0</ele><time>2026-04-16T02:02:02Z</time></trkpt><trkpt lat="-25.80904669616956" lon="113.67051581770397"><ele>17.0</ele><time>2026-04-16T02:02:03Z</time></trkpt><trkpt lat="-25.808961047927966" lon="113.67079241026543"><ele>19.0</ele><time>2026-04-16T02:02:04Z</time></trkpt><trkpt lat="-25.80887701282886" lon="113.67106997101813"><ele>19.0</ele><time>2026-04-16T02:02:05Z</time></trkpt><trkpt lat="-25.8087926121623" lon="113.67135233401982"><ele>19.0</ele><time>2026-04-16T02:02:06Z</time></trkpt><trkpt lat="-25.80871022210947" lon="113.67163461410077"><ele>19.0</ele><time>2026-04-16T02:02:07Z</time></trkpt><trkpt lat="-25.808628275082484" lon="113.67192097186654"><ele>19.0</ele><time>2026-04-16T02:02:08Z</time></trkpt><trkpt lat="-25.80854649498166" lon="113.67220989477853"><ele>19.5</ele><time>2026-04-16T02:02:09Z</time></trkpt><trkpt lat="-25.808464598937483" lon="113.6724996365257"><ele>20.0</ele><time>2026-04-16T02:02:10Z</time></trkpt><trkpt lat="-25.80837988081491" lon="113.67279294134943"><ele>20.0</ele><time>2026-04-16T02:02:11Z</time></trkpt><trkpt lat="-25.80829274920828" lon="113.67308579916056"><ele>20.0</ele><time>2026-04-16T02:02:12Z</time></trkpt><trkpt lat="-25.808203158498955" lon="113.67337832546849"><ele>19.0</ele><time>2026-04-16T02:02:13Z</time></trkpt><trkpt lat="-25.808115370281982" lon="113.67366871585604"><ele>18.0</ele><time>2026-04-16T02:02:14Z</time></trkpt><trkpt lat="-25.808028247111032" lon="113.67395797426704"><ele>18.0</ele><time>2026-04-16T02:02:15Z</time></trkpt><trkpt lat="-25.807943162057732" lon="113.67424529849235"><ele>18.0</ele><time>2026-04-16T02:02:16Z</time></trkpt><trkpt lat="-25.807858188795993" lon="113.67453254698245"><ele>16.5</ele><time>2026-04-16T02:02:17Z</time></trkpt><trkpt lat="-25.807772881095712" lon="113.6748182645354"><ele>15.0</ele><time>2026-04-16T02:02:18Z</time></trkpt><trkpt lat="-25.807689083409258" lon="113.6750967430054"><ele>16.0</ele><time>2026-04-16T02:02:19Z</time></trkpt><trkpt lat="-25.807605502776024" lon="113.67537689562717"><ele>17.0</ele><time>2026-04-16T02:02:20Z</time></trkpt><trkpt lat="-25.807520844482184" lon="113.67565363825693"><ele>17.0</ele><time>2026-04-16T02:02:21Z</time></trkpt><trkpt lat="-25.807437106200357" lon="113.6759261209769"><ele>17.0</ele><time>2026-04-16T02:02:22Z</time></trkpt><trkpt lat="-25.807356909298118" lon="113.67619563959417"><ele>17.0</ele><time>2026-04-16T02:02:23Z</time></trkpt><trkpt lat="-25.807276722805415" lon="113.676465253045"><ele>17.0</ele><time>2026-04-16T02:02:24Z</time></trkpt><trkpt lat="-25.8071964310643" lon="113.67673692156556"><ele>17.5</ele><time>2026-04-16T02:02:25Z</time></trkpt><trkpt lat="-25.807117677713737" lon="113.67701063881587"><ele>18.0</ele><time>2026-04-16T02:02:26Z</time></trkpt><trkpt lat="-25.807036694603717" lon="113.677282104108"><ele>18.0</ele><time>2026-04-16T02:02:27Z</time></trkpt><trkpt lat="-25.80695444661914" lon="113.67755472377968"><ele>18.0</ele><time>2026-04-16T02:02:28Z</time></trkpt><trkpt lat="-25.80687238147419" lon="113.67783055865588"><ele>20.0</ele><time>2026-04-16T02:02:29Z</time></trkpt><trkpt lat="-25.80679029370243" lon="113.67810815548886"><ele>22.0</ele><time>2026-04-16T02:02:30Z</time></trkpt><trkpt lat="-25.806707052078096" lon="113.67838614111342"><ele>22.5</ele><time>2026-04-16T02:02:31Z</time></trkpt><trkpt lat="-25.806622709023063" lon="113.67866715279926"><ele>23.0</ele><time>2026-04-16T02:02:32Z</time></trkpt><trkpt lat="-25.806539639598224" lon="113.67894881443662"><ele>23.0</ele><time>2026-04-16T02:02:33Z</time></trkpt><trkpt lat="-25.80645724030574" lon="113.67922869481892"><ele>23.0</ele><time>2026-04-16T02:02:34Z</time></trkpt><trkpt lat="-25.806373620952805" lon="113.67951148495594"><ele>23.0</ele><time>2026-04-16T02:02:35Z</time></trkpt><trkpt lat="-25.806290502727304" lon="113.6797928000699"><ele>23.0</ele><time>2026-04-16T02:02:36Z</time></trkpt><trkpt lat="-25.806205911534914" lon="113.68007686855648"><ele>22.5</ele><time>2026-04-16T02:02:37Z</time></trkpt><trkpt lat="-25.806120648821995" lon="113.68036029082255"><ele>22.0</ele><time>2026-04-16T02:02:38Z</time></trkpt><trkpt lat="-25.806037700667183" lon="113.6806410495203"><ele>22.0</ele><time>2026-04-16T02:02:39Z</time></trkpt><trkpt lat="-25.805955426181896" lon="113.68092037517805"><ele>22.0</ele><time>2026-04-16T02:02:40Z</time></trkpt><trkpt lat="-25.80587394666551" lon="113.68120157677374"><ele>22.0</ele><time>2026-04-16T02:02:41Z</time></trkpt><trkpt lat="-25.8057908455415" lon="113.68148339841535"><ele>22.0</ele><time>2026-04-16T02:02:42Z</time></trkpt><trkpt lat="-25.80570586780925" lon="113.6817678516234"><ele>22.0</ele><time>2026-04-16T02:02:43Z</time></trkpt><trkpt lat="-25.805620820231383" lon="113.68205400791233"><ele>22.0</ele><time>2026-04-16T02:02:44Z</time></trkpt><trkpt lat="-25.805535269030905" lon="113.68234320123175"><ele>22.0</ele><time>2026-04-16T02:02:45Z</time></trkpt><trkpt lat="-25.805446909774037" lon="113.68263537700611"><ele>22.0</ele><time>2026-04-16T02:02:46Z</time></trkpt><trkpt lat="-25.805357719776538" lon="113.68292999979282"><ele>22.0</ele><time>2026-04-16T02:02:47Z</time></trkpt><trkpt lat="-25.805266859122767" lon="113.68323000683748"><ele>22.0</ele><time>2026-04-16T02:02:48Z</time></trkpt><trkpt lat="-25.805174998116843" lon="113.68352976958808"><ele>22.5</ele><time>2026-04-16T02:02:49Z</time></trkpt><trkpt lat="-25.805082428703276" lon="113.68383761401162"><ele>23.0</ele><time>2026-04-16T02:02:50Z</time></trkpt><trkpt lat="-25.80499331244255" lon="113.68414656934665"><ele>23.5</ele><time>2026-04-16T02:02:51Z</time></trkpt><trkpt lat="-25.804903452000296" lon="113.68445483934967"><ele>24.0</ele><time>2026-04-16T02:02:52Z</time></trkpt><trkpt lat="-25.804813500821467" lon="113.68476602016327"><ele>24.0</ele><time>2026-04-16T02:02:53Z</time></trkpt><trkpt lat="-25.80472755695053" lon="113.68506066527314"><ele>24.0</ele><time>2026-04-16T02:02:54Z</time></trkpt><trkpt lat="-25.804642284761755" lon="113.68534841274663"><ele>24.5</ele><time>2026-04-16T02:02:55Z</time></trkpt><trkpt lat="-25.804556622875037" lon="113.68563755153983"><ele>25.0</ele><time>2026-04-16T02:02:56Z</time></trkpt><trkpt lat="-25.80446834039717" lon="113.68593121246256"><ele>25.0</ele><time>2026-04-16T02:02:57Z</time></trkpt><trkpt lat="-25.804380141603584" lon="113.6862235540409"><ele>25.0</ele><time>2026-04-16T02:02:58Z</time></trkpt><trkpt lat="-25.80429185768179" lon="113.68651791206922"><ele>25.5</ele><time>2026-04-16T02:02:59Z</time></trkpt><trkpt lat="-25.804201830053014" lon="113.68681604731634"><ele>26.0</ele><time>2026-04-16T02:03:00Z</time></trkpt><trkpt lat="-25.80411096184649" lon="113.6871178228996"><ele>26.0</ele><time>2026-04-16T02:03:01Z</time></trkpt><trkpt lat="-25.804021269264844" lon="113.68741485072837"><ele>26.0</ele><time>2026-04-16T02:03:02Z</time></trkpt><trkpt lat="-25.8039359221434" lon="113.68770563737078"><ele>26.0</ele><time>2026-04-16T02:03:03Z</time></trkpt><trkpt lat="-25.803849266889255" lon="113.68799520960171"><ele>26.0</ele><time>2026-04-16T02:03:04Z</time></trkpt><trkpt lat="-25.803764520424547" lon="113.68827658235806"><ele>26.0</ele><time>2026-04-16T02:03:05Z</time></trkpt><trkpt lat="-25.80367407986868" lon="113.68855534510448"><ele>26.0</ele><time>2026-04-16T02:03:06Z</time></trkpt><trkpt lat="-25.80357268394994" lon="113.68883505827"><ele>26.0</ele><time>2026-04-16T02:03:07Z</time></trkpt><trkpt lat="-25.803462139616254" lon="113.6891105136937"><ele>26.0</ele><time>2026-04-16T02:03:08Z</time></trkpt><trkpt lat="-25.803345790964812" lon="113.6893844718839"><ele>26.5</ele><time>2026-04-16T02:03:09Z</time></trkpt><trkpt lat="-25.803222801593467" lon="113.68965617434557"><ele>27.0</ele><time>2026-04-16T02:03:10Z</time></trkpt><trkpt lat="-25.8030973491029" lon="113.68992267930791"><ele>27.0</ele><time>2026-04-16T02:03:11Z</time></trkpt><trkpt lat="-25.802975831625343" lon="113.69018361900565"><ele>27.0</ele><time>2026-04-16T02:03:12Z</time></trkpt><trkpt lat="-25.802852802834927" lon="113.69044572063304"><ele>26.0</ele><time>2026-04-16T02:03:13Z</time></trkpt><trkpt lat="-25.802731702872837" lon="113.69070565761999"><ele>25.0</ele><time>2026-04-16T02:03:14Z</time></trkpt><trkpt lat="-25.802614550429922" lon="113.6909615446492"><ele>22.5</ele><time>2026-04-16T02:03:15Z</time></trkpt><trkpt lat="-25.80249470783712" lon="113.69122477893964"><ele>20.0</ele><time>2026-04-16T02:03:16Z</time></trkpt><trkpt lat="-25.802376183847922" lon="113.69148469753996"><ele>20.0</ele><time>2026-04-16T02:03:17Z</time></trkpt><trkpt lat="-25.80225511101647" lon="113.69175043227033"><ele>20.0</ele><time>2026-04-16T02:03:18Z</time></trkpt><trkpt lat="-25.80213681875096" lon="113.69201094236114"><ele>20.0</ele><time>2026-04-16T02:03:19Z</time></trkpt><trkpt lat="-25.80201578490902" lon="113.69227556855637"><ele>20.0</ele><time>2026-04-16T02:03:20Z</time></trkpt><trkpt lat="-25.80189532038721" lon="113.69253926189958"><ele>17.5</ele><time>2026-04-16T02:03:21Z</time></trkpt><trkpt lat="-25.801772227676853" lon="113.69280732222504"><ele>15.0</ele><time>2026-04-16T02:03:22Z</time></trkpt><trkpt lat="-25.80165103617942" lon="113.69307048413737"><ele>15.0</ele><time>2026-04-16T02:03:23Z</time></trkpt><trkpt lat="-25.801526492994153" lon="113.69333453388131"><ele>15.0</ele><time>2026-04-16T02:03:24Z</time></trkpt><trkpt lat="-25.801406057350537" lon="113.69359398113471"><ele>15.0</ele><time>2026-04-16T02:03:25Z</time></trkpt><trkpt lat="-25.80128603934058" lon="113.69385513261379"><ele>15.0</ele><time>2026-04-16T02:03:26Z</time></trkpt><trkpt lat="-25.801167068929317" lon="113.69411370770239"><ele>15.0</ele><time>2026-04-16T02:03:27Z</time></trkpt><trkpt lat="-25.80105607637233" lon="113.69435916048737"><ele>15.0</ele><time>2026-04-16T02:03:28Z</time></trkpt><trkpt lat="-25.80095121284054" lon="113.69458775459678"><ele>14.333333333333332</ele><time>2026-04-16T02:03:29Z</time></trkpt><trkpt lat="-25.800853978745245" lon="113.6947991344834"><ele>13.666666666666666</ele><time>2026-04-16T02:03:30Z</time></trkpt><trkpt lat="-25.80075773038818" lon="113.69500641726155"><ele>13.0</ele><time>2026-04-16T02:03:31Z</time></trkpt><trkpt lat="-25.800663281317494" lon="113.69520731676151"><ele>12.666666666666666</ele><time>2026-04-16T02:03:32Z</time></trkpt><trkpt lat="-25.80057356314766" lon="113.69539490287235"><ele>12.333333333333332</ele><time>2026-04-16T02:03:33Z</time></trkpt><trkpt lat="-25.800490571994807" lon="113.69557308668104"><ele>12.0</ele><time>2026-04-16T02:03:34Z</time></trkpt><trkpt lat="-25.800413991069792" lon="113.69574537516945"><ele>12.0</ele><time>2026-04-16T02:03:35Z</time></trkpt><trkpt lat="-25.800341367142277" lon="113.69590381692869"><ele>12.0</ele><time>2026-04-16T02:03:36Z</time></trkpt><trkpt lat="-25.80027137015012" lon="113.69605425175008"><ele>12.0</ele><time>2026-04-16T02:03:37Z</time></trkpt><trkpt lat="-25.800208537279236" lon="113.69619115155604"><ele>11.8</ele><time>2026-04-16T02:03:38Z</time></trkpt><trkpt lat="-25.800152548962814" lon="113.696315176481"><ele>11.6</ele><time>2026-04-16T02:03:39Z</time></trkpt><trkpt lat="-25.800100964412668" lon="113.6964244820188"><ele>11.4</ele><time>2026-04-16T02:03:40Z</time></trkpt><trkpt lat="-25.800058558391058" lon="113.69650793476916"><ele>11.200000000000001</ele><time>2026-04-16T02:03:41Z</time></trkpt><trkpt lat="-25.800002409940898" lon="113.69656794211429"><ele>11.0</ele><time>2026-04-16T02:03:43Z</time></trkpt><trkpt lat="-25.799846940297407" lon="113.6965037375396"><ele>11.0</ele><time>2026-04-16T02:03:47Z</time></trkpt><trkpt lat="-25.79978195480175" lon="113.69645993181184"><ele>11.0</ele><time>2026-04-16T02:03:49Z</time></trkpt><trkpt lat="-25.799665069422794" lon="113.69641239482753"><ele>11.0</ele><time>2026-04-16T02:03:51Z</time></trkpt><trkpt lat="-25.79957257030506" lon="113.69638209958104"><ele>11.0</ele><time>2026-04-16T02:03:52Z</time></trkpt><trkpt lat="-25.799469281984347" lon="113.69634480750354"><ele>11.0</ele><time>2026-04-16T02:03:53Z</time></trkpt><trkpt lat="-25.799349394761446" lon="113.69630159181453"><ele>10.5</ele><time>2026-04-16T02:03:54Z</time></trkpt><trkpt lat="-25.799216083122285" lon="113.69625413541144"><ele>10.0</ele><time>2026-04-16T02:03:55Z</time></trkpt><trkpt lat="-25.79908376824122" lon="113.69620440776116"><ele>9.5</ele><time>2026-04-16T02:03:56Z</time></trkpt><trkpt lat="-25.79895763733742" lon="113.69616025182255"><ele>9.0</ele><time>2026-04-16T02:03:57Z</time></trkpt><trkpt lat="-25.798822511373025" lon="113.69611260812333"><ele>8.666666666666666</ele><time>2026-04-16T02:03:58Z</time></trkpt><trkpt lat="-25.79867703568275" lon="113.69606117886025"><ele>8.333333333333332</ele><time>2026-04-16T02:03:59Z</time></trkpt><trkpt lat="-25.798528016794755" lon="113.69600622550239"><ele>8.0</ele><time>2026-04-16T02:04:00Z</time></trkpt><trkpt lat="-25.798375961342806" lon="113.69594676821548"><ele>7.666666666666666</ele><time>2026-04-16T02:04:01Z</time></trkpt><trkpt lat="-25.798218459942056" lon="113.69588520428836"><ele>7.333333333333334</ele><time>2026-04-16T02:04:02Z</time></trkpt><trkpt lat="-25.79806126798303" lon="113.69582738234541"><ele>7.0</ele><time>2026-04-16T02:04:03Z</time></trkpt><trkpt lat="-25.79790940116285" lon="113.69577044843003"><ele>7.0</ele><time>2026-04-16T02:04:04Z</time></trkpt><trkpt lat="-25.797766094969067" lon="113.69571664938037"><ele>7.0</ele><time>2026-04-16T02:04:05Z</time></trkpt><trkpt lat="-25.797635319929473" lon="113.69566785192728"><ele>7.0</ele><time>2026-04-16T02:04:06Z</time></trkpt><trkpt lat="-25.79751977284468" lon="113.69562300552347"><ele>7.0</ele><time>2026-04-16T02:04:07Z</time></trkpt><trkpt lat="-25.7974191558993" lon="113.69558610483179"><ele>6.833333333333334</ele><time>2026-04-16T02:04:08Z</time></trkpt><trkpt lat="-25.797347777944715" lon="113.69556270277607"><ele>6.666666666666667</ele><time>2026-04-16T02:04:09Z</time></trkpt><trkpt lat="-25.79728721842393" lon="113.69553954947871"><ele>6.5</ele><time>2026-04-16T02:04:10Z</time></trkpt><trkpt lat="-25.797205971526026" lon="113.6955345816905"><ele>6.333333333333334</ele><time>2026-04-16T02:04:12Z</time></trkpt><trkpt lat="-25.797137370428437" lon="113.69559142685578"><ele>6.166666666666667</ele><time>2026-04-16T02:04:14Z</time></trkpt><trkpt lat="-25.797096272067655" lon="113.69572515681203"><ele>6.0</ele><time>2026-04-16T02:04:16Z</time></trkpt><trkpt lat="-25.79708400196856" lon="113.69582170655522"><ele>6.0</ele><time>2026-04-16T02:04:17Z</time></trkpt><trkpt lat="-25.79707479798157" lon="113.69593468487199"><ele>6.0</ele><time>2026-04-16T02:04:18Z</time></trkpt><trkpt lat="-25.797056841183586" lon="113.696063984106"><ele>6.0</ele><time>2026-04-16T02:04:19Z</time></trkpt><trkpt lat="-25.797031321072264" lon="113.69619176200464"><ele>6.0</ele><time>2026-04-16T02:04:20Z</time></trkpt><trkpt lat="-25.797001898001593" lon="113.69633549855519"><ele>5.333333333333333</ele><time>2026-04-16T02:04:21Z</time></trkpt><trkpt lat="-25.796966053760002" lon="113.69651813314874"><ele>4.666666666666666</ele><time>2026-04-16T02:04:22Z</time></trkpt><trkpt lat="-25.796929840210343" lon="113.69670271242386"><ele>4.0</ele><time>2026-04-16T02:04:23Z</time></trkpt><trkpt lat="-25.796892388542148" lon="113.69687829258507"><ele>4.5</ele><time>2026-04-16T02:04:24Z</time></trkpt><trkpt lat="-25.79686627621225" lon="113.69703154518722"><ele>5.0</ele><time>2026-04-16T02:04:25Z</time></trkpt><trkpt lat="-25.796850462702462" lon="113.69717217475359"><ele>5.5</ele><time>2026-04-16T02:04:26Z</time></trkpt><trkpt lat="-25.796843704508827" lon="113.69730457617275"><ele>6.0</ele><time>2026-04-16T02:04:27Z</time></trkpt><trkpt lat="-25.79683124757328" lon="113.69743162470238"><ele>6.0</ele><time>2026-04-16T02:04:28Z</time></trkpt><trkpt lat="-25.79680862035334" lon="113.69757293861682"><ele>6.0</ele><time>2026-04-16T02:04:29Z</time></trkpt><trkpt lat="-25.796781329001465" lon="113.6977253763181"><ele>6.0</ele><time>2026-04-16T02:04:30Z</time></trkpt><trkpt lat="-25.796745533248046" lon="113.69790651637744"><ele>6.0</ele><time>2026-04-16T02:04:31Z</time></trkpt><trkpt lat="-25.796707120313393" lon="113.69809086905525"><ele>6.0</ele><time>2026-04-16T02:04:32Z</time></trkpt><trkpt lat="-25.79666726310597" lon="113.69827981675522"><ele>6.0</ele><time>2026-04-16T02:04:33Z</time></trkpt><trkpt lat="-25.796637973138054" lon="113.69846839144404"><ele>6.0</ele><time>2026-04-16T02:04:34Z</time></trkpt><trkpt lat="-25.796612913635002" lon="113.69865628345593"><ele>6.0</ele><time>2026-04-16T02:04:35Z</time></trkpt><trkpt lat="-25.79658793181015" lon="113.6988532329622"><ele>6.0</ele><time>2026-04-16T02:04:36Z</time></trkpt><trkpt lat="-25.79656187420041" lon="113.69904366817029"><ele>6.0</ele><time>2026-04-16T02:04:37Z</time></trkpt><trkpt lat="-25.796529669495108" lon="113.69923295741303"><ele>7.0</ele><time>2026-04-16T02:04:38Z</time></trkpt><trkpt lat="-25.796502261244452" lon="113.69942006190936"><ele>8.0</ele><time>2026-04-16T02:04:39Z</time></trkpt><trkpt lat="-25.796469386229536" lon="113.69960695717339"><ele>9.0</ele><time>2026-04-16T02:04:40Z</time></trkpt><trkpt lat="-25.79643040344632" lon="113.69979446550111"><ele>9.0</ele><time>2026-04-16T02:04:41Z</time></trkpt><trkpt lat="-25.796391116318535" lon="113.69998526044002"><ele>9.0</ele><time>2026-04-16T02:04:42Z</time></trkpt><trkpt lat="-25.796354776650997" lon="113.70017231085478"><ele>9.0</ele><time>2026-04-16T02:04:43Z</time></trkpt><trkpt lat="-25.796320880158497" lon="113.70035048982638"><ele>9.25</ele><time>2026-04-16T02:04:44Z</time></trkpt><trkpt lat="-25.796283330151482" lon="113.7005168367558"><ele>9.5</ele><time>2026-04-16T02:04:45Z</time></trkpt><trkpt lat="-25.796252103090143" lon="113.70068132584841"><ele>9.75</ele><time>2026-04-16T02:04:46Z</time></trkpt><trkpt lat="-25.79623813481076" lon="113.70083484473736"><ele>10.0</ele><time>2026-04-16T02:04:47Z</time></trkpt><trkpt lat="-25.796214436206334" lon="113.70097573728114"><ele>10.2</ele><time>2026-04-16T02:04:48Z</time></trkpt><trkpt lat="-25.79618412386317" lon="113.70110423251876"><ele>10.4</ele><time>2026-04-16T02:04:49Z</time></trkpt><trkpt lat="-25.79615690816001" lon="113.70121226114925"><ele>10.600000000000001</ele><time>2026-04-16T02:04:50Z</time></trkpt><trkpt lat="-25.796145713420778" lon="113.7013138526778"><ele>10.8</ele><time>2026-04-16T02:04:51Z</time></trkpt><trkpt lat="-25.79614192256085" lon="113.70142050653457"><ele>11.0</ele><time>2026-04-16T02:04:52Z</time></trkpt><trkpt lat="-25.79612777681088" lon="113.70153933219598"><ele>11.0</ele><time>2026-04-16T02:04:53Z</time></trkpt><trkpt lat="-25.79610320881635" lon="113.70167204129467"><ele>11.0</ele><time>2026-04-16T02:04:54Z</time></trkpt><trkpt lat="-25.796075477688653" lon="113.70182048156101"><ele>11.0</ele><time>2026-04-16T02:04:55Z</time></trkpt><trkpt lat="-25.79605116411361" lon="113.70197441273474"><ele>11.0</ele><time>2026-04-16T02:04:56Z</time></trkpt><trkpt lat="-25.79602554711843" lon="113.70214357426205"><ele>12.0</ele><time>2026-04-16T02:04:57Z</time></trkpt><trkpt lat="-25.79599845607497" lon="113.70231588483584"><ele>13.0</ele><time>2026-04-16T02:04:58Z</time></trkpt><trkpt lat="-25.795964237059923" lon="113.70248320008405"><ele>14.0</ele><time>2026-04-16T02:04:59Z</time></trkpt><trkpt lat="-25.795923478575013" lon="113.70265579264021"><ele>14.333333333333334</ele><time>2026-04-16T02:05:00Z</time></trkpt><trkpt lat="-25.795889601431366" lon="113.70282526145458"><ele>14.666666666666668</ele><time>2026-04-16T02:05:01Z</time></trkpt><trkpt lat="-25.79586869874533" lon="113.70299884190784"><ele>15.0</ele><time>2026-04-16T02:05:02Z</time></trkpt><trkpt lat="-25.79585241858911" lon="113.70316555111654"><ele>15.0</ele><time>2026-04-16T02:05:03Z</time></trkpt><trkpt lat="-25.795823824191164" lon="113.7033257029145"><ele>15.0</ele><time>2026-04-16T02:05:04Z</time></trkpt><trkpt lat="-25.79578634769264" lon="113.70348265651334"><ele>15.0</ele><time>2026-04-16T02:05:05Z</time></trkpt><trkpt lat="-25.79574777303123" lon="113.70364522487894"><ele>15.0</ele><time>2026-04-16T02:05:06Z</time></trkpt><trkpt lat="-25.7957217980719" lon="113.70381128031221"><ele>15.25</ele><time>2026-04-16T02:05:07Z</time></trkpt><trkpt lat="-25.795707621691662" lon="113.70397333528206"><ele>15.5</ele><time>2026-04-16T02:05:08Z</time></trkpt><trkpt lat="-25.795701469979935" lon="113.70411715188423"><ele>15.75</ele><time>2026-04-16T02:05:09Z</time></trkpt><trkpt lat="-25.795695815142523" lon="113.704239313338"><ele>16.0</ele><time>2026-04-16T02:05:10Z</time></trkpt><trkpt lat="-25.795687339596764" lon="113.70433402368522"><ele>16.166666666666664</ele><time>2026-04-16T02:05:11Z</time></trkpt><trkpt lat="-25.795656953674037" lon="113.70445113618969"><ele>16.333333333333332</ele><time>2026-04-16T02:05:13Z</time></trkpt><trkpt lat="-25.795616352380762" lon="113.70452181987434"><ele>16.5</ele><time>2026-04-16T02:05:15Z</time></trkpt><trkpt lat="-25.79552366706374" lon="113.70447675876814"><ele>16.666666666666668</ele><time>2026-04-16T02:05:19Z</time></trkpt><trkpt lat="-25.795471425798222" lon="113.70443239120506"><ele>16.833333333333336</ele><time>2026-04-16T02:05:21Z</time></trkpt><trkpt lat="-25.79540176042726" lon="113.70447392809734"><ele>17.0</ele><time>2026-04-16T02:05:23Z</time></trkpt><trkpt lat="-25.795338030115545" lon="113.70451477101082"><ele>17.0</ele><time>2026-04-16T02:05:25Z</time></trkpt><trkpt lat="-25.7952553859097" lon="113.70458193573452"><ele>17.0</ele><time>2026-04-16T02:05:27Z</time></trkpt><trkpt lat="-25.795215523240905" lon="113.70452146378891"><ele>17.0</ele><time>2026-04-16T02:06:25Z</time></trkpt><trkpt lat="-25.79515896252732" lon="113.70445955243783"><ele>17.0</ele><time>2026-04-16T02:06:27Z</time></trkpt><trkpt lat="-25.795126089092967" lon="113.70452398428904"><ele>17.0</ele><time>2026-04-16T02:06:29Z</time></trkpt><trkpt lat="-25.795081305800817" lon="113.70461033765963"><ele>17.0</ele><time>2026-04-16T02:06:31Z</time></trkpt><trkpt lat="-25.79505963576611" lon="113.7046882456005"><ele>17.0</ele><time>2026-04-16T02:06:33Z</time></trkpt><trkpt lat="-25.79501997847231" lon="113.70474677527089"><ele>17.0</ele><time>2026-04-16T02:06:35Z</time></trkpt><trkpt lat="-25.79506557832971" lon="113.70468842683188"><ele>17.0</ele><time>2026-04-16T02:07:18Z</time></trkpt><trkpt lat="-25.795084374587766" lon="113.70458152025304"><ele>17.0</ele><time>2026-04-16T02:07:20Z</time></trkpt><trkpt lat="-25.79511863725905" lon="113.70451495420299"><ele>17.0</ele><time>2026-04-16T02:07:23Z</time></trkpt><trkpt lat="-25.795213209061522" lon="113.70449516501107"><ele>17.0</ele><time>2026-04-16T02:07:34Z</time></trkpt><trkpt lat="-25.79531087215784" lon="113.7045014295306"><ele>17.0</ele><time>2026-04-16T02:07:36Z</time></trkpt><trkpt lat="-25.795403432782003" lon="113.70448965880614"><ele>17.0</ele><time>2026-04-16T02:07:38Z</time></trkpt><trkpt lat="-25.79549941682078" lon="113.70446447280024"><ele>17.0</ele><time>2026-04-16T02:07:40.001Z</time></trkpt><trkpt lat="-25.79557344624711" lon="113.7044604171168"><ele>17.0</ele><time>2026-04-16T02:07:42.001Z</time></trkpt><trkpt lat="-25.795618433030793" lon="113.7045100725667"><ele>17.0</ele><time>2026-04-16T02:07:44.001Z</time></trkpt><trkpt lat="-25.7956343617056" lon="113.70460887008416"><ele>17.0</ele><time>2026-04-16T02:07:46.001Z</time></trkpt><trkpt lat="-25.79563308537994" lon="113.70474430132411"><ele>17.0</ele><time>2026-04-16T02:07:48.001Z</time></trkpt><trkpt lat="-25.79563302558422" lon="113.7048332124868"><ele>17.0</ele><time>2026-04-16T02:07:49.001Z</time></trkpt><trkpt lat="-25.79563337202811" lon="113.70493410020971"><ele>17.0</ele><time>2026-04-16T02:07:50.001Z</time></trkpt><trkpt lat="-25.795639672027956" lon="113.70504008500023"><ele>17.0</ele><time>2026-04-16T02:07:51.001Z</time></trkpt><trkpt lat="-25.79564935336942" lon="113.70514173733456"><ele>17.0</ele><time>2026-04-16T02:07:52.001Z</time></trkpt><trkpt lat="-25.79565975233914" lon="113.70523338899633"><ele>17.0</ele><time>2026-04-16T02:07:53.001Z</time></trkpt><trkpt lat="-25.795671653057006" lon="113.70532009936292"><ele>16.666666666666668</ele><time>2026-04-16T02:07:54.001Z</time></trkpt><trkpt lat="-25.79569004642267" lon="113.70540547329536"><ele>16.333333333333336</ele><time>2026-04-16T02:07:55.001Z</time></trkpt><trkpt lat="-25.79571421810242" lon="113.7054946651467"><ele>16.0</ele><time>2026-04-16T02:07:56.001Z</time></trkpt><trkpt lat="-25.795719605180423" lon="113.70558722108305"><ele>15.666666666666668</ele><time>2026-04-16T02:07:57.001Z</time></trkpt><trkpt lat="-25.795720397543572" lon="113.70567821827608"><ele>15.333333333333334</ele><time>2026-04-16T02:07:58Z</time></trkpt><trkpt lat="-25.795740959749683" lon="113.70576600410726"><ele>15.0</ele><time>2026-04-16T02:07:59Z</time></trkpt><trkpt lat="-25.79578331847895" lon="113.70586934126874"><ele>15.0</ele><time>2026-04-16T02:08:00Z</time></trkpt><trkpt lat="-25.795826188001715" lon="113.70597837498454"><ele>15.0</ele><time>2026-04-16T02:08:01Z</time></trkpt><trkpt lat="-25.795856685787925" lon="113.70607788655886"><ele>15.0</ele><time>2026-04-16T02:08:02Z</time></trkpt><trkpt lat="-25.79587477608244" lon="113.70615813423285"><ele>15.0</ele><time>2026-04-16T02:08:03Z</time></trkpt><trkpt lat="-25.795860695233642" lon="113.70628943211995"><ele>15.0</ele><time>2026-04-16T02:08:05Z</time></trkpt><trkpt lat="-25.795840645332405" lon="113.7063606650461"><ele>15.0</ele><time>2026-04-16T02:08:06Z</time></trkpt><trkpt lat="-25.79584124748242" lon="113.70643565154181"><ele>15.0</ele><time>2026-04-16T02:08:07Z</time></trkpt><trkpt lat="-25.795857011858207" lon="113.70651791418157"><ele>15.0</ele><time>2026-04-16T02:08:08Z</time></trkpt><trkpt lat="-25.795867910585475" lon="113.70659058053018"><ele>15.0</ele><time>2026-04-16T02:08:09Z</time></trkpt><trkpt lat="-25.795850748352404" lon="113.70669858644534"><ele>15.0</ele><time>2026-04-16T02:08:11Z</time></trkpt><trkpt lat="-25.795825687150693" lon="113.70678611853575"><ele>15.0</ele><time>2026-04-16T02:08:13Z</time></trkpt><trkpt lat="-25.795846745034524" lon="113.70686437956248"><ele>15.5</ele><time>2026-04-16T02:08:15Z</time></trkpt><trkpt lat="-25.795920297334828" lon="113.70696959075715"><ele>16.0</ele><time>2026-04-16T02:08:17Z</time></trkpt><trkpt lat="-25.79596217937348" lon="113.7070511560012"><ele>16.5</ele><time>2026-04-16T02:08:18Z</time></trkpt><trkpt lat="-25.796003120992957" lon="113.70712958582612"><ele>17.0</ele><time>2026-04-16T02:08:19Z</time></trkpt><trkpt lat="-25.79603867297448" lon="113.7071939963092"><ele>17.5</ele><time>2026-04-16T02:08:20Z</time></trkpt><trkpt lat="-25.79606387154252" lon="113.70725920264039"><ele>18.0</ele><time>2026-04-16T02:08:21Z</time></trkpt><trkpt lat="-25.796085425332084" lon="113.70735489271193"><ele>18.0</ele><time>2026-04-16T02:08:22Z</time></trkpt><trkpt lat="-25.796103932338923" lon="113.70748620391849"><ele>18.0</ele><time>2026-04-16T02:08:23Z</time></trkpt><trkpt lat="-25.796113148822283" lon="113.70763402094661"><ele>18.0</ele><time>2026-04-16T02:08:24Z</time></trkpt><trkpt lat="-25.796117580038466" lon="113.70779502352971"><ele>18.0</ele><time>2026-04-16T02:08:25Z</time></trkpt><trkpt lat="-25.7961229160614" lon="113.70798393376784"><ele>17.666666666666668</ele><time>2026-04-16T02:08:26Z</time></trkpt><trkpt lat="-25.796132953731718" lon="113.70818620357004"><ele>17.333333333333336</ele><time>2026-04-16T02:08:27Z</time></trkpt><trkpt lat="-25.796150281694512" lon="113.70840976586115"><ele>17.0</ele><time>2026-04-16T02:08:28Z</time></trkpt><trkpt lat="-25.796172804595653" lon="113.70865288493661"><ele>17.0</ele><time>2026-04-16T02:08:29Z</time></trkpt><trkpt lat="-25.796195586993854" lon="113.70889850094954"><ele>17.0</ele><time>2026-04-16T02:08:30Z</time></trkpt><trkpt lat="-25.796223043477372" lon="113.70915395576861"><ele>17.0</ele><time>2026-04-16T02:08:31Z</time></trkpt><trkpt lat="-25.79625295062879" lon="113.70940396478605"><ele>17.0</ele><time>2026-04-16T02:08:32Z</time></trkpt><trkpt lat="-25.796279152016336" lon="113.70964960492513"><ele>16.0</ele><time>2026-04-16T02:08:33Z</time></trkpt><trkpt lat="-25.796299050817687" lon="113.70988477968463"><ele>15.0</ele><time>2026-04-16T02:08:34Z</time></trkpt><trkpt lat="-25.796312075802806" lon="113.71011709052368"><ele>14.0</ele><time>2026-04-16T02:08:35Z</time></trkpt><trkpt lat="-25.796317558620434" lon="113.71035764556088"><ele>13.666666666666668</ele><time>2026-04-16T02:08:36Z</time></trkpt><trkpt lat="-25.79631635789188" lon="113.71060102172378"><ele>13.333333333333332</ele><time>2026-04-16T02:08:37Z</time></trkpt><trkpt lat="-25.796306423032547" lon="113.7108548058112"><ele>13.0</ele><time>2026-04-16T02:08:38Z</time></trkpt><trkpt lat="-25.796290671255218" lon="113.71110724123737"><ele>13.0</ele><time>2026-04-16T02:08:39Z</time></trkpt><trkpt lat="-25.796265371196462" lon="113.71135012633168"><ele>13.0</ele><time>2026-04-16T02:08:40Z</time></trkpt><trkpt lat="-25.79623119266389" lon="113.71159012105198"><ele>13.0</ele><time>2026-04-16T02:08:41Z</time></trkpt><trkpt lat="-25.796193084935584" lon="113.71183273048682"><ele>13.666666666666666</ele><time>2026-04-16T02:08:42Z</time></trkpt><trkpt lat="-25.796150563222472" lon="113.71207147196084"><ele>14.333333333333332</ele><time>2026-04-16T02:08:43Z</time></trkpt><trkpt lat="-25.796106128237103" lon="113.71230444072694"><ele>15.0</ele><time>2026-04-16T02:08:44Z</time></trkpt><trkpt lat="-25.79605849021822" lon="113.71253608734426"><ele>15.0</ele><time>2026-04-16T02:08:45Z</time></trkpt><trkpt lat="-25.79600798474752" lon="113.71277583133487"><ele>15.0</ele><time>2026-04-16T02:08:46Z</time></trkpt><trkpt lat="-25.795957355802226" lon="113.71302039874006"><ele>15.0</ele><time>2026-04-16T02:08:47Z</time></trkpt><trkpt lat="-25.79590737812941" lon="113.71326874542677"><ele>11.5</ele><time>2026-04-16T02:08:48Z</time></trkpt><trkpt lat="-25.795858985515004" lon="113.71352034109124"><ele>8.0</ele><time>2026-04-16T02:08:49Z</time></trkpt><trkpt lat="-25.795810378121303" lon="113.71377260248781"><ele>7.5</ele><time>2026-04-16T02:08:50Z</time></trkpt><trkpt lat="-25.79576207279786" lon="113.71402318547274"><ele>7.0</ele><time>2026-04-16T02:08:51Z</time></trkpt><trkpt lat="-25.795714029643225" lon="113.714268143674"><ele>6.5</ele><time>2026-04-16T02:08:52Z</time></trkpt><trkpt lat="-25.795665004570143" lon="113.7145165375096"><ele>6.0</ele><time>2026-04-16T02:08:53Z</time></trkpt><trkpt lat="-25.795617154266424" lon="113.71476970921152"><ele>6.0</ele><time>2026-04-16T02:08:54Z</time></trkpt><trkpt lat="-25.795566129710085" lon="113.715031028358"><ele>6.0</ele><time>2026-04-16T02:08:55Z</time></trkpt><trkpt lat="-25.795515447939476" lon="113.71528795761427"><ele>6.666666666666666</ele><time>2026-04-16T02:08:56Z</time></trkpt><trkpt lat="-25.795470074399322" lon="113.71552901354752"><ele>7.333333333333333</ele><time>2026-04-16T02:08:57Z</time></trkpt><trkpt lat="-25.79542726514984" lon="113.71576532174896"><ele>8.0</ele><time>2026-04-16T02:08:58Z</time></trkpt><trkpt lat="-25.7953830500979" lon="113.71600703279495"><ele>8.0</ele><time>2026-04-16T02:08:59Z</time></trkpt><trkpt lat="-25.79534230193297" lon="113.71624984227613"><ele>8.0</ele><time>2026-04-16T02:09:00Z</time></trkpt><trkpt lat="-25.795312225538247" lon="113.7164880876415"><ele>8.0</ele><time>2026-04-16T02:09:01Z</time></trkpt><trkpt lat="-25.795291881244918" lon="113.71671405116449"><ele>7.333333333333333</ele><time>2026-04-16T02:09:02Z</time></trkpt><trkpt lat="-25.795279422927486" lon="113.71692341987934"><ele>6.666666666666666</ele><time>2026-04-16T02:09:03Z</time></trkpt><trkpt lat="-25.79526879653305" lon="113.71711410126325"><ele>6.0</ele><time>2026-04-16T02:09:04Z</time></trkpt><trkpt lat="-25.79525683883024" lon="113.7172750421282"><ele>6.0</ele><time>2026-04-16T02:09:05Z</time></trkpt><trkpt lat="-25.795247040143316" lon="113.71737813870703"><ele>6.0</ele><time>2026-04-16T02:09:06Z</time></trkpt><trkpt lat="-25.795236465164475" lon="113.7174523389079"><ele>6.0</ele><time>2026-04-16T02:09:07Z</time></trkpt><trkpt lat="-25.795230754170873" lon="113.7175382511007"><ele>6.0</ele><time>2026-04-16T02:09:08Z</time></trkpt><trkpt lat="-25.79523037951134" lon="113.71763784134613"><ele>6.0</ele><time>2026-04-16T02:09:09Z</time></trkpt><trkpt lat="-25.795229512756915" lon="113.71775444970257"><ele>6.0</ele><time>2026-04-16T02:09:10Z</time></trkpt><trkpt lat="-25.795222140898925" lon="113.71788445163405"><ele>6.25</ele><time>2026-04-16T02:09:11Z</time></trkpt><trkpt lat="-25.7952136373812" lon="113.71802244871486"><ele>6.5</ele><time>2026-04-16T02:09:12Z</time></trkpt><trkpt lat="-25.7952150382418" lon="113.71816160023562"><ele>6.75</ele><time>2026-04-16T02:09:13Z</time></trkpt><trkpt lat="-25.79521902582592" lon="113.71828741459068"><ele>7.0</ele><time>2026-04-16T02:09:14Z</time></trkpt><trkpt lat="-25.795217128840946" lon="113.71840241248825"><ele>7.000000000000001</ele><time>2026-04-16T02:09:15Z</time></trkpt><trkpt lat="-25.79521714024428" lon="113.7185068903934"><ele>7.0</ele><time>2026-04-16T02:09:16Z</time></trkpt><trkpt lat="-25.795224032987758" lon="113.71859653788599"><ele>7.0</ele><time>2026-04-16T02:09:17Z</time></trkpt><trkpt lat="-25.795231119113808" lon="113.71867738101496"><ele>7.0</ele><time>2026-04-16T02:09:18Z</time></trkpt><trkpt lat="-25.795222548537982" lon="113.71878184703539"><ele>7.000000000000001</ele><time>2026-04-16T02:09:20Z</time></trkpt><trkpt lat="-25.795190658862953" lon="113.71885070471333"><ele>7.0</ele><time>2026-04-16T02:09:24Z</time></trkpt><trkpt lat="-25.79515252933497" lon="113.71891477403653"><ele>6.833333333333334</ele><time>2026-04-16T02:09:27Z</time></trkpt><trkpt lat="-25.79510593502339" lon="113.71896550326835"><ele>6.666666666666667</ele><time>2026-04-16T02:14:44Z</time></trkpt><trkpt lat="-25.795037578682084" lon="113.71902494545674"><ele>6.5</ele><time>2026-04-16T02:14:47Z</time></trkpt><trkpt lat="-25.79495027428479" lon="113.71904795377556"><ele>6.333333333333334</ele><time>2026-04-16T02:14:49Z</time></trkpt><trkpt lat="-25.7948322596287" lon="113.71905697462928"><ele>6.166666666666667</ele><time>2026-04-16T02:14:51Z</time></trkpt><trkpt lat="-25.794764476538337" lon="113.71906954456955"><ele>6.0</ele><time>2026-04-16T02:14:52Z</time></trkpt><trkpt lat="-25.794652594287726" lon="113.71909371378288"><ele>6.0</ele><time>2026-04-16T02:14:54Z</time></trkpt><trkpt lat="-25.79454350015743" lon="113.7191248937121"><ele>6.0</ele><time>2026-04-16T02:14:56Z</time></trkpt><trkpt lat="-25.79449557834979" lon="113.71918042890063"><ele>6.0</ele><time>2026-04-16T02:14:57Z</time></trkpt><trkpt lat="-25.79439403145818" lon="113.71924691406166"><ele>6.0</ele><time>2026-04-16T02:14:59Z</time></trkpt><trkpt lat="-25.79431196689163" lon="113.7192942236602"><ele>6.0</ele><time>2026-04-16T02:15:01Z</time></trkpt><trkpt lat="-25.79422711202119" lon="113.7193534215043"><ele>5.8</ele><time>2026-04-16T02:15:03Z</time></trkpt><trkpt lat="-25.79412033510134" lon="113.71942896090748"><ele>5.6</ele><time>2026-04-16T02:15:05Z</time></trkpt><trkpt lat="-25.794070524737613" lon="113.71947384229067"><ele>5.4</ele><time>2026-04-16T02:15:06Z</time></trkpt><trkpt lat="-25.794002679224747" lon="113.71955235941942"><ele>5.2</ele><time>2026-04-16T02:15:08Z</time></trkpt><trkpt lat="-25.793961407264316" lon="113.71963000128832"><ele>5.0</ele><time>2026-04-16T02:15:10Z</time></trkpt><trkpt lat="-25.793916915907637" lon="113.7197365300196"><ele>5.0</ele><time>2026-04-16T02:15:12Z</time></trkpt><trkpt lat="-25.793908715477674" lon="113.71982780196032"><ele>5.0</ele><time>2026-04-16T02:15:14Z</time></trkpt><trkpt lat="-25.79392295618561" lon="113.71991183891261"><ele>5.0</ele><time>2026-04-16T02:15:16Z</time></trkpt><trkpt lat="-25.793953097396113" lon="113.71998072188028"><ele>5.0</ele><time>2026-04-16T02:15:20Z</time></trkpt><trkpt lat="-25.793993649767657" lon="113.72008262879511"><ele>5.0</ele><time>2026-04-16T02:15:21Z</time></trkpt><trkpt lat="-25.79412629989517" lon="113.71999072787631"><ele>5.0</ele><time>2026-04-16T02:15:22Z</time></trkpt><trkpt lat="-25.794204024709522" lon="113.72002231651258"><ele>5.0</ele><time>2026-04-16T02:15:25Z</time></trkpt><trkpt lat="-25.794230043712673" lon="113.72010028355336"><ele>5.0</ele><time>2026-04-16T02:15:28Z</time></trkpt><trkpt lat="-25.794285315307818" lon="113.72014052201799"><ele>5.0</ele><time>2026-04-16T02:15:32Z</time></trkpt><trkpt lat="-25.79417593106811" lon="113.71999317535355"><ele>5.0</ele><time>2026-04-16T02:15:37Z</time></trkpt><trkpt lat="-25.79411489689182" lon="113.71997433990147"><ele>5.0</ele><time>2026-04-16T02:15:38Z</time></trkpt><trkpt lat="-25.794020331717597" lon="113.71993969606062"><ele>5.0</ele><time>2026-04-16T02:15:40Z</time></trkpt><trkpt lat="-25.79396077149156" lon="113.71989636534322"><ele>5.0</ele><time>2026-04-16T02:15:42Z</time></trkpt><trkpt lat="-25.793935081282765" lon="113.71982823756024"><ele>5.0</ele><time>2026-04-16T02:15:44Z</time></trkpt><trkpt lat="-25.79392871998016" lon="113.7197434293946"><ele>5.0</ele><time>2026-04-16T02:15:46Z</time></trkpt><trkpt lat="-25.793954744018542" lon="113.71966010881087"><ele>5.0</ele><time>2026-04-16T02:15:48Z</time></trkpt><trkpt lat="-25.794017381302417" lon="113.71962012665783"><ele>5.0</ele><time>2026-04-16T02:15:50Z</time></trkpt><trkpt lat="-25.794112406988766" lon="113.71964460134267"><ele>5.0</ele><time>2026-04-16T02:15:53Z</time></trkpt><trkpt lat="-25.794188723251132" lon="113.71962414048251"><ele>5.0</ele><time>2026-04-16T02:15:55Z</time></trkpt><trkpt lat="-25.79427251823639" lon="113.71959144590019"><ele>5.0</ele><time>2026-04-16T02:15:57Z</time></trkpt><trkpt lat="-25.79434365090719" lon="113.71955363667072"><ele>5.0</ele><time>2026-04-16T02:15:59Z</time></trkpt><trkpt lat="-25.79440422515586" lon="113.71950816351423"><ele>5.0</ele><time>2026-04-16T02:16:01Z</time></trkpt><trkpt lat="-25.794457408300573" lon="113.71946429514125"><ele>5.0</ele><time>2026-04-16T02:16:03Z</time></trkpt><trkpt lat="-25.794530681177466" lon="113.71943393146657"><ele>5.0</ele><time>2026-04-16T02:16:06Z</time></trkpt><trkpt lat="-25.79459364826988" lon="113.71945813210263"><ele>5.0</ele><time>2026-04-16T02:16:09Z</time></trkpt><trkpt lat="-25.7945262148662" lon="113.7194629550689"><ele>5.0</ele><time>2026-04-16T02:16:58Z</time></trkpt><trkpt lat="-25.794462832021356" lon="113.71946947159007"><ele>5.0</ele><time>2026-04-16T02:17:03Z</time></trkpt><trkpt lat="-25.794399970601173" lon="113.71949801759114"><ele>5.0</ele><time>2026-04-16T02:17:08Z</time></trkpt><trkpt lat="-25.794344099769905" lon="113.71954350579703"><ele>5.0</ele><time>2026-04-16T02:17:13Z</time></trkpt><trkpt lat="-25.794278387393753" lon="113.71958302387192"><ele>5.0</ele><time>2026-04-16T02:17:18Z</time></trkpt><trkpt lat="-25.794204135389567" lon="113.71959790102532"><ele>5.0</ele><time>2026-04-16T02:17:23Z</time></trkpt><trkpt lat="-25.79413635405458" lon="113.71959666301204"><ele>5.0</ele><time>2026-04-16T02:17:28Z</time></trkpt><trkpt lat="-25.794070858439657" lon="113.7195638742568"><ele>5.0</ele><time>2026-04-16T02:17:33Z</time></trkpt><trkpt lat="-25.794015167397212" lon="113.7195128917189"><ele>5.0</ele><time>2026-04-16T02:17:39Z</time></trkpt><trkpt lat="-25.79395102757497" lon="113.71950583968123"><ele>5.0</ele><time>2026-04-16T02:17:44Z</time></trkpt><trkpt lat="-25.793885520623224" lon="113.71954492378504"><ele>5.0</ele><time>2026-04-16T02:17:50Z</time></trkpt><trkpt lat="-25.793847554107863" lon="113.7196149441357"><ele>5.0</ele><time>2026-04-16T02:17:56Z</time></trkpt><trkpt lat="-25.79381272453124" lon="113.71967999607777"><ele>5.0</ele><time>2026-04-16T02:18:01Z</time></trkpt><trkpt lat="-25.793756324696048" lon="113.71972305263132"><ele>5.0</ele><time>2026-04-16T02:18:07Z</time></trkpt><trkpt lat="-25.793689565131423" lon="113.7197457079466"><ele>5.0</ele><time>2026-04-16T02:18:45Z</time></trkpt><trkpt lat="-25.79361872793035" lon="113.71974916698464"><ele>5.0</ele><time>2026-04-16T02:18:56Z</time></trkpt><trkpt lat="-25.793553810610355" lon="113.71974248002861"><ele>5.0</ele><time>2026-04-16T02:19:13Z</time></trkpt><trkpt lat="-25.793615838574222" lon="113.71976303000409"><ele>5.0</ele><time>2026-04-16T02:20:28Z</time></trkpt><trkpt lat="-25.793689152179898" lon="113.7197476112046"><ele>5.0</ele><time>2026-04-16T02:20:33Z</time></trkpt><trkpt lat="-25.793756740806813" lon="113.71973933449439"><ele>5.0</ele><time>2026-04-16T02:20:38Z</time></trkpt><trkpt lat="-25.793829320094105" lon="113.71975359568502"><ele>5.0</ele><time>2026-04-16T02:20:45Z</time></trkpt><trkpt lat="-25.7938950954309" lon="113.71977311132666"><ele>5.0</ele><time>2026-04-16T02:20:51Z</time></trkpt><trkpt lat="-25.793956176312086" lon="113.71979110961679"><ele>5.0</ele><time>2026-04-16T02:20:57Z</time></trkpt><trkpt lat="-25.794026994270382" lon="113.71979984534796"><ele>5.0</ele><time>2026-04-16T02:21:03Z</time></trkpt><trkpt lat="-25.794096185273787" lon="113.71981349769243"><ele>5.0</ele><time>2026-04-16T02:21:09Z</time></trkpt><trkpt lat="-25.79416583246741" lon="113.71983057958525"><ele>5.0</ele><time>2026-04-16T02:21:15Z</time></trkpt><trkpt lat="-25.79409709047151" lon="113.71980858282943"><ele>5.0</ele><time>2026-04-16T02:21:26Z</time></trkpt><trkpt lat="-25.794034847220363" lon="113.7197941327828"><ele>5.0</ele><time>2026-04-16T02:21:31Z</time></trkpt><trkpt lat="-25.793972771712003" lon="113.71977591092202"><ele>5.0</ele><time>2026-04-16T02:21:36Z</time></trkpt><trkpt lat="-25.793951764462808" lon="113.71969554139568"><ele>5.0</ele><time>2026-04-16T02:21:44Z</time></trkpt><trkpt lat="-25.793996789227332" lon="113.71964027529297"><ele>5.0</ele><time>2026-04-16T02:21:49Z</time></trkpt><trkpt lat="-25.7940639657348" lon="113.71965086515381"><ele>5.0</ele><time>2026-04-16T02:21:54Z</time></trkpt><trkpt lat="-25.79413732285166" lon="113.71964316951367"><ele>5.0</ele><time>2026-04-16T02:21:59Z</time></trkpt><trkpt lat="-25.794200611995308" lon="113.71962468062132"><ele>5.0</ele><time>2026-04-16T02:22:04Z</time></trkpt><trkpt lat="-25.79427134577439" lon="113.7195988341836"><ele>5.0</ele><time>2026-04-16T02:22:09Z</time></trkpt><trkpt lat="-25.794336119255902" lon="113.71957757655319"><ele>5.0</ele><time>2026-04-16T02:22:14Z</time></trkpt><trkpt lat="-25.794396796442733" lon="113.71954346064922"><ele>5.0</ele><time>2026-04-16T02:22:19Z</time></trkpt><trkpt lat="-25.794453372639083" lon="113.71948913245896"><ele>5.0</ele><time>2026-04-16T02:22:25Z</time></trkpt><trkpt lat="-25.794524495071215" lon="113.71945960072573"><ele>5.0</ele><time>2026-04-16T02:22:30Z</time></trkpt><trkpt lat="-25.794594087058012" lon="113.71948729039094"><ele>5.0</ele><time>2026-04-16T02:22:36Z</time></trkpt><trkpt lat="-25.794486423109653" lon="113.71947521961337"><ele>5.0</ele><time>2026-04-16T02:23:28Z</time></trkpt><trkpt lat="-25.7943888863066" lon="113.71950834143388"><ele>5.0</ele><time>2026-04-16T02:23:30Z</time></trkpt><trkpt lat="-25.794285494862685" lon="113.71958500720413"><ele>5.0</ele><time>2026-04-16T02:23:32Z</time></trkpt><trkpt lat="-25.794171453162615" lon="113.71962465606767"><ele>5.0</ele><time>2026-04-16T02:23:34Z</time></trkpt><trkpt lat="-25.794065655647607" lon="113.71957559384961"><ele>5.0</ele><time>2026-04-16T02:23:36Z</time></trkpt><trkpt lat="-25.793998289932187" lon="113.71953749091156"><ele>5.0</ele><time>2026-04-16T02:23:38Z</time></trkpt><trkpt lat="-25.79391114111333" lon="113.71965508748858"><ele>5.0</ele><time>2026-04-16T02:23:40Z</time></trkpt><trkpt lat="-25.793915280486488" lon="113.71973214122804"><ele>5.0</ele><time>2026-04-16T02:23:42Z</time></trkpt><trkpt lat="-25.79381562655374" lon="113.719729624354"><ele>5.0</ele><time>2026-04-16T02:27:17Z</time></trkpt><trkpt lat="-25.79374328233323" lon="113.71973806230592"><ele>5.0</ele><time>2026-04-16T02:27:23Z</time></trkpt><trkpt lat="-25.79367560078333" lon="113.7197728504307"><ele>5.0</ele><time>2026-04-16T02:27:29Z</time></trkpt><trkpt lat="-25.793609298969614" lon="113.71978012908748"><ele>5.0</ele><time>2026-04-16T02:27:34Z</time></trkpt><trkpt lat="-25.793546797345876" lon="113.71982891269202"><ele>5.0</ele><time>2026-04-16T02:27:39Z</time></trkpt><trkpt lat="-25.793472378626824" lon="113.71983159688813"><ele>5.0</ele><time>2026-04-16T02:40:54Z</time></trkpt><trkpt lat="-25.79342343634953" lon="113.71987654765395"><ele>5.0</ele><time>2026-04-16T02:41:03Z</time></trkpt><trkpt lat="-25.79346654326647" lon="113.71995180091184"><ele>5.0</ele><time>2026-04-16T02:41:07Z</time></trkpt><trkpt lat="-25.793466769441107" lon="113.72003174996631"><ele>5.0</ele><time>2026-04-16T02:41:11Z</time></trkpt><trkpt lat="-25.793460034523665" lon="113.71994550277687"><ele>5.0</ele><time>2026-04-16T02:41:23Z</time></trkpt><trkpt lat="-25.79348074380383" lon="113.71985841474581"><ele>5.0</ele><time>2026-04-16T02:41:26Z</time></trkpt><trkpt lat="-25.793542306753338" lon="113.7198377197343"><ele>5.0</ele><time>2026-04-16T02:41:31Z</time></trkpt><trkpt lat="-25.793605598958735" lon="113.719843425375"><ele>5.0</ele><time>2026-04-16T02:41:36Z</time></trkpt><trkpt lat="-25.793655823828132" lon="113.71979073139582"><ele>5.0</ele><time>2026-04-16T02:41:39Z</time></trkpt><trkpt lat="-25.793711912710418" lon="113.71975660154853"><ele>5.0</ele><time>2026-04-16T02:41:44Z</time></trkpt><trkpt lat="-25.793778015494517" lon="113.71974464166381"><ele>5.0</ele><time>2026-04-16T02:41:48Z</time></trkpt><trkpt lat="-25.793847145990238" lon="113.71973960912153"><ele>5.0</ele><time>2026-04-16T02:41:53Z</time></trkpt><trkpt lat="-25.79387514425689" lon="113.71981042353451"><ele>5.0</ele><time>2026-04-16T02:44:16Z</time></trkpt><trkpt lat="-25.793850465540178" lon="113.71973777515406"><ele>5.0</ele><time>2026-04-16T02:44:20Z</time></trkpt><trkpt lat="-25.793771396214275" lon="113.71973965082896"><ele>5.0</ele><time>2026-04-16T02:44:26Z</time></trkpt><trkpt lat="-25.793705335821457" lon="113.71976154493835"><ele>5.0</ele><time>2026-04-16T02:44:31Z</time></trkpt><trkpt lat="-25.793630596568974" lon="113.71976440474977"><ele>5.0</ele><time>2026-04-16T02:44:36Z</time></trkpt><trkpt lat="-25.793560657777515" lon="113.71977934000499"><ele>5.0</ele><time>2026-04-16T02:44:41Z</time></trkpt><trkpt lat="-25.79350639584001" lon="113.71983239523102"><ele>5.0</ele><time>2026-04-16T02:44:46Z</time></trkpt><trkpt lat="-25.79345419260689" lon="113.71977675512083"><ele>5.0</ele><time>2026-04-16T02:44:53Z</time></trkpt><trkpt lat="-25.79341556998487" lon="113.7197205241462"><ele>5.0</ele><time>2026-04-16T02:44:58.999Z</time></trkpt><trkpt lat="-25.793394179009347" lon="113.71964081913464"><ele>5.0</ele><time>2026-04-16T02:45:03.999Z</time></trkpt><trkpt lat="-25.79339314899605" lon="113.71955564363499"><ele>5.0</ele><time>2026-04-16T02:45:08.999Z</time></trkpt><trkpt lat="-25.793392570602006" lon="113.71948453579577"><ele>4.857142857142857</ele><time>2026-04-16T02:45:12.999Z</time></trkpt><trkpt lat="-25.793403502334794" lon="113.71940230251069"><ele>4.714285714285714</ele><time>2026-04-16T02:45:17.999Z</time></trkpt><trkpt lat="-25.793418760048706" lon="113.7193230495046"><ele>4.571428571428571</ele><time>2026-04-16T02:45:22.999Z</time></trkpt><trkpt lat="-25.793444795340307" lon="113.71924972852726"><ele>4.428571428571429</ele><time>2026-04-16T02:45:28Z</time></trkpt><trkpt lat="-25.793408903990432" lon="113.71917474605765"><ele>4.285714285714286</ele><time>2026-04-16T02:45:33Z</time></trkpt><trkpt lat="-25.793399055274786" lon="113.71909414356392"><ele>4.142857142857142</ele><time>2026-04-16T02:45:38Z</time></trkpt><trkpt lat="-25.793393282993264" lon="113.7190138278378"><ele>4.0</ele><time>2026-04-16T02:45:43Z</time></trkpt><trkpt lat="-25.79339689965099" lon="113.7189299495204"><ele>4.0</ele><time>2026-04-16T02:45:48Z</time></trkpt><trkpt lat="-25.793395108026747" lon="113.71884831064406"><ele>3.9999999999999996</ele><time>2026-04-16T02:45:53Z</time></trkpt><trkpt lat="-25.79341235843676" lon="113.71877596739013"><ele>4.0</ele><time>2026-04-16T02:45:58Z</time></trkpt><trkpt lat="-25.793438068644807" lon="113.71869953661708"><ele>4.0</ele><time>2026-04-16T02:46:03Z</time></trkpt><trkpt lat="-25.793514584944603" lon="113.71869939565146"><ele>3.9999999999999996</ele><time>2026-04-16T02:46:10Z</time></trkpt><trkpt lat="-25.793576346452554" lon="113.71873781329369"><ele>4.0</ele><time>2026-04-16T02:46:16Z</time></trkpt><trkpt lat="-25.793633419519313" lon="113.71879056374854"><ele>4.0</ele><time>2026-04-16T02:46:23Z</time></trkpt><trkpt lat="-25.79358717766071" lon="113.71872567576494"><ele>4.0</ele><time>2026-04-16T02:46:52.999Z</time></trkpt><trkpt lat="-25.793552815401007" lon="113.71865348402906"><ele>3.9999999999999996</ele><time>2026-04-16T02:46:57.999Z</time></trkpt><trkpt lat="-25.793529075871056" lon="113.71857599576352"><ele>4.0</ele><time>2026-04-16T02:47:02.999Z</time></trkpt><trkpt lat="-25.793505190389755" lon="113.71851050602932"><ele>4.0</ele><time>2026-04-16T02:47:06.999Z</time></trkpt><trkpt lat="-25.793494051438707" lon="113.71843188320338"><ele>3.9999999999999996</ele><time>2026-04-16T02:47:11.999Z</time></trkpt><trkpt lat="-25.79348480611665" lon="113.71835140013862"><ele>4.0</ele><time>2026-04-16T02:47:16.999Z</time></trkpt><trkpt lat="-25.793500222996638" lon="113.71842036800813"><ele>4.0</ele><time>2026-04-16T02:47:34Z</time></trkpt><trkpt lat="-25.79346969465874" lon="113.71848454560607"><ele>4.0</ele><time>2026-04-16T02:47:38Z</time></trkpt><trkpt lat="-25.793436797585812" lon="113.71855463875411"><ele>3.9999999999999996</ele><time>2026-04-16T02:47:43Z</time></trkpt><trkpt lat="-25.793406326640774" lon="113.71861696325996"><ele>4.0</ele><time>2026-04-16T02:47:47Z</time></trkpt><trkpt lat="-25.793397062466806" lon="113.71869964993017"><ele>4.0</ele><time>2026-04-16T02:47:52Z</time></trkpt><trkpt lat="-25.79339372774148" lon="113.71878520578954"><ele>3.9999999999999996</ele><time>2026-04-16T02:47:57Z</time></trkpt><trkpt lat="-25.79339461295758" lon="113.71887115243723"><ele>4.0</ele><time>2026-04-16T02:48:02Z</time></trkpt><trkpt lat="-25.793399905810585" lon="113.71895442077948"><ele>4.0</ele><time>2026-04-16T02:48:07Z</time></trkpt><trkpt lat="-25.79342943210955" lon="113.71903173311733"><ele>4.0</ele><time>2026-04-16T02:48:12Z</time></trkpt><trkpt lat="-25.793466028178596" lon="113.71908871665131"><ele>3.9999999999999996</ele><time>2026-04-16T02:48:16Z</time></trkpt><trkpt lat="-25.793530217044797" lon="113.71913811732175"><ele>4.0</ele><time>2026-04-16T02:48:21Z</time></trkpt><trkpt lat="-25.793581294406174" lon="113.71918016495471"><ele>4.0</ele><time>2026-04-16T02:48:25Z</time></trkpt><trkpt lat="-25.79365090197944" lon="113.71918723767267"><ele>3.9999999999999996</ele><time>2026-04-16T02:48:31Z</time></trkpt><trkpt lat="-25.793706864263385" lon="113.71921950110925"><ele>4.0</ele><time>2026-04-16T02:48:40.999Z</time></trkpt><trkpt lat="-25.793772891280312" lon="113.71923914065233"><ele>4.0</ele><time>2026-04-16T02:48:54.999Z</time></trkpt><trkpt lat="-25.793679401928696" lon="113.71922233488091"><ele>4.4</ele><time>2026-04-16T02:53:21.063Z</time></trkpt><trkpt lat="-25.793762464873698" lon="113.71921931396061"><ele>4.800000000000001</ele><time>2026-04-16T02:54:31.012Z</time></trkpt><trkpt lat="-25.793564541788772" lon="113.71914063654087"><ele>5.199999999999999</ele><time>2026-04-16T02:54:51.417Z</time></trkpt><trkpt lat="-25.79357775993838" lon="113.71922484653624"><ele>5.6</ele><time>2026-04-16T02:55:06Z</time></trkpt><trkpt lat="-25.793570783938534" lon="113.71930306633018"><ele>6.0</ele><time>2026-04-16T02:55:11Z</time></trkpt><trkpt lat="-25.793570464552765" lon="113.71937922874763"><ele>5.857142857142857</ele><time>2026-04-16T02:55:17Z</time></trkpt><trkpt lat="-25.793562470365394" lon="113.71945915237937"><ele>5.714285714285714</ele><time>2026-04-16T02:55:21Z</time></trkpt><trkpt lat="-25.79353575912521" lon="113.71952575297236"><ele>5.571428571428571</ele><time>2026-04-16T02:55:25Z</time></trkpt><trkpt lat="-25.79350890605777" lon="113.71959146275351"><ele>5.428571428571429</ele><time>2026-04-16T02:55:29Z</time></trkpt><trkpt lat="-25.793466347199907" lon="113.71966039275597"><ele>5.285714285714286</ele><time>2026-04-16T02:55:34Z</time></trkpt><trkpt lat="-25.79344096270499" lon="113.71972999667838"><ele>5.142857142857142</ele><time>2026-04-16T02:55:43Z</time></trkpt><trkpt lat="-25.793491189232885" lon="113.71978040053082"><ele>5.0</ele><time>2026-04-16T02:55:49Z</time></trkpt><trkpt lat="-25.7935414236438" lon="113.71982942802173"><ele>5.0</ele><time>2026-04-16T02:55:54.999Z</time></trkpt><trkpt lat="-25.793609523496986" lon="113.71980891499666"><ele>5.0</ele><time>2026-04-16T02:55:58.999Z</time></trkpt><trkpt lat="-25.793681830465015" lon="113.71979044872744"><ele>5.0</ele><time>2026-04-16T02:56:02.999Z</time></trkpt><trkpt lat="-25.793761692232714" lon="113.7197756685634"><ele>5.0</ele><time>2026-04-16T02:56:08.999Z</time></trkpt><trkpt lat="-25.793830652923404" lon="113.71978377989636"><ele>5.0</ele><time>2026-04-16T02:56:12.999Z</time></trkpt><trkpt lat="-25.793765612385492" lon="113.71975601782171"><ele>5.0</ele><time>2026-04-16T02:58:21.999Z</time></trkpt><trkpt lat="-25.793700025897678" lon="113.71976370446912"><ele>5.0</ele><time>2026-04-16T02:58:26.999Z</time></trkpt><trkpt lat="-25.79362645512975" lon="113.71979032799109"><ele>5.0</ele><time>2026-04-16T02:58:31.999Z</time></trkpt><trkpt lat="-25.793561827934546" lon="113.71976639832542"><ele>5.0</ele><time>2026-04-16T02:58:37.999Z</time></trkpt><trkpt lat="-25.793432509345994" lon="113.71974801912798"><ele>5.0</ele><time>2026-04-16T03:00:29.999Z</time></trkpt><trkpt lat="-25.793388418409275" lon="113.71968918709032"><ele>5.0</ele><time>2026-04-16T03:00:34.999Z</time></trkpt><trkpt lat="-25.79339212641364" lon="113.71961904184971"><ele>5.0</ele><time>2026-04-16T03:00:39Z</time></trkpt><trkpt lat="-25.793384319928933" lon="113.71954406388986"><ele>5.0</ele><time>2026-04-16T03:00:46Z</time></trkpt><trkpt lat="-25.79339165773989" lon="113.71946312344684"><ele>4.857142857142857</ele><time>2026-04-16T03:00:52Z</time></trkpt><trkpt lat="-25.793361946832352" lon="113.71939937818674"><ele>4.714285714285714</ele><time>2026-04-16T03:00:57Z</time></trkpt><trkpt lat="-25.79333719450922" lon="113.71932409409644"><ele>4.571428571428571</ele><time>2026-04-16T03:01:03Z</time></trkpt><trkpt lat="-25.79328576091789" lon="113.71927338743832"><ele>4.428571428571429</ele><time>2026-04-16T03:01:09Z</time></trkpt><trkpt lat="-25.793225080223607" lon="113.71922273404928"><ele>4.285714285714286</ele><time>2026-04-16T03:01:17Z</time></trkpt><trkpt lat="-25.793227418669208" lon="113.71914975619733"><ele>4.142857142857142</ele><time>2026-04-16T03:01:34Z</time></trkpt><trkpt lat="-25.793242753012784" lon="113.71906184868199"><ele>4.0</ele><time>2026-04-16T03:01:39Z</time></trkpt><trkpt lat="-25.793228934404286" lon="113.718989303276"><ele>4.0</ele><time>2026-04-16T03:01:45Z</time></trkpt><trkpt lat="-25.793195565937054" lon="113.7189225188794"><ele>4.0</ele><time>2026-04-16T03:01:52Z</time></trkpt></trkseg></trk></gpx>